<?xml version="1.0" encoding="UTF-8" standalone="no" ?>
<gpx xmlns="http://www.topografix.com/GPX/1/1" xmlns:xsi="http://www.w3.org/2001/XMLSchema-instance" xsi:schemaLocation="http://www.topografix.com/GPX/1/1 http://www.topografix.com/GPX/1/1/gpx.xsd" version="1.1" creator="VisuGPX - https://www.visugpx.com">
  <metadata>
    <name>Lourmarin les hautes terres</name>
    <desc><![CDATA[Lourmarin les hautes terres. très beau parcours]]></desc>
  </metadata>
  <trk>
    <name><![CDATA[lourmarin les claparedes ]]></name>
    <trkseg>
      <trkpt lat="43.76617" lon="5.36397">
        <ele>222.673737</ele>
        <time>2018-12-15T10:59:41Z</time>
      </trkpt>
      <trkpt lat="43.76638" lon="5.36417">
        <ele>223.015656</ele>
        <time>2018-12-15T10:59:57Z</time>
      </trkpt>
      <trkpt lat="43.76652" lon="5.36446">
        <ele>224.046082</ele>
        <time>2018-12-15T11:00:13Z</time>
      </trkpt>
      <trkpt lat="43.76667" lon="5.36462">
        <ele>224.614761</ele>
        <time>2018-12-15T11:00:29Z</time>
      </trkpt>
      <trkpt lat="43.76685" lon="5.36484">
        <ele>225.364105</ele>
        <time>2018-12-15T11:00:45Z</time>
      </trkpt>
      <trkpt lat="43.76702" lon="5.36502">
        <ele>226.091339</ele>
        <time>2018-12-15T11:01:00Z</time>
      </trkpt>
      <trkpt lat="43.7672" lon="5.36517">
        <ele>226.692566</ele>
        <time>2018-12-15T11:01:16Z</time>
      </trkpt>
      <trkpt lat="43.76738" lon="5.3653">
        <ele>227.125961</ele>
        <time>2018-12-15T11:01:31Z</time>
      </trkpt>
      <trkpt lat="43.76758" lon="5.36542">
        <ele>227.476257</ele>
        <time>2018-12-15T11:01:47Z</time>
      </trkpt>
      <trkpt lat="43.76782" lon="5.36549">
        <ele>227.59613</ele>
        <time>2018-12-15T11:02:03Z</time>
      </trkpt>
      <trkpt lat="43.76805" lon="5.36562">
        <ele>228.050049</ele>
        <time>2018-12-15T11:02:19Z</time>
      </trkpt>
      <trkpt lat="43.76822" lon="5.36574">
        <ele>228.587006</ele>
        <time>2018-12-15T11:02:34Z</time>
      </trkpt>
      <trkpt lat="43.76845" lon="5.36585">
        <ele>229.023987</ele>
        <time>2018-12-15T11:02:50Z</time>
      </trkpt>
      <trkpt lat="43.76869" lon="5.36593">
        <ele>229.31134</ele>
        <time>2018-12-15T11:03:05Z</time>
      </trkpt>
      <trkpt lat="43.76889" lon="5.36603">
        <ele>229.878052</ele>
        <time>2018-12-15T11:03:20Z</time>
      </trkpt>
      <trkpt lat="43.76911" lon="5.36617">
        <ele>230.887085</ele>
        <time>2018-12-15T11:03:36Z</time>
      </trkpt>
      <trkpt lat="43.76932" lon="5.36625">
        <ele>231.695007</ele>
        <time>2018-12-15T11:03:51Z</time>
      </trkpt>
      <trkpt lat="43.76954" lon="5.36632">
        <ele>232.311432</ele>
        <time>2018-12-15T11:04:07Z</time>
      </trkpt>
      <trkpt lat="43.76973" lon="5.36641">
        <ele>232.86702</ele>
        <time>2018-12-15T11:04:22Z</time>
      </trkpt>
      <trkpt lat="43.76995" lon="5.36651">
        <ele>233.402527</ele>
        <time>2018-12-15T11:04:37Z</time>
      </trkpt>
      <trkpt lat="43.77016" lon="5.36654">
        <ele>233.770996</ele>
        <time>2018-12-15T11:04:53Z</time>
      </trkpt>
      <trkpt lat="43.77036" lon="5.3666">
        <ele>234.220108</ele>
        <time>2018-12-15T11:05:08Z</time>
      </trkpt>
      <trkpt lat="43.7706" lon="5.36666">
        <ele>234.701172</ele>
        <time>2018-12-15T11:05:24Z</time>
      </trkpt>
      <trkpt lat="43.77081" lon="5.36667">
        <ele>234.974335</ele>
        <time>2018-12-15T11:05:39Z</time>
      </trkpt>
      <trkpt lat="43.77105" lon="5.36671">
        <ele>235.081253</ele>
        <time>2018-12-15T11:05:55Z</time>
      </trkpt>
      <trkpt lat="43.77129" lon="5.36674">
        <ele>235.183884</ele>
        <time>2018-12-15T11:06:11Z</time>
      </trkpt>
      <trkpt lat="43.77149" lon="5.36675">
        <ele>235.247528</ele>
        <time>2018-12-15T11:06:26Z</time>
      </trkpt>
      <trkpt lat="43.77171" lon="5.36677">
        <ele>235.514008</ele>
        <time>2018-12-15T11:06:42Z</time>
      </trkpt>
      <trkpt lat="43.77196" lon="5.36679">
        <ele>236.47142</ele>
        <time>2018-12-15T11:06:58Z</time>
      </trkpt>
      <trkpt lat="43.77219" lon="5.36678">
        <ele>237.212341</ele>
        <time>2018-12-15T11:07:13Z</time>
      </trkpt>
      <trkpt lat="43.77244" lon="5.36674">
        <ele>237.96965</ele>
        <time>2018-12-15T11:07:29Z</time>
      </trkpt>
      <trkpt lat="43.77264" lon="5.36665">
        <ele>238.634567</ele>
        <time>2018-12-15T11:07:44Z</time>
      </trkpt>
      <trkpt lat="43.77285" lon="5.36651">
        <ele>239.58313</ele>
        <time>2018-12-15T11:08:00Z</time>
      </trkpt>
      <trkpt lat="43.77308" lon="5.3664">
        <ele>240.685455</ele>
        <time>2018-12-15T11:08:15Z</time>
      </trkpt>
      <trkpt lat="43.7733" lon="5.36633">
        <ele>241.833466</ele>
        <time>2018-12-15T11:08:31Z</time>
      </trkpt>
      <trkpt lat="43.7735" lon="5.36632">
        <ele>243.018066</ele>
        <time>2018-12-15T11:08:46Z</time>
      </trkpt>
      <trkpt lat="43.7737" lon="5.36628">
        <ele>244.21344</ele>
        <time>2018-12-15T11:09:01Z</time>
      </trkpt>
      <trkpt lat="43.77385" lon="5.36611">
        <ele>245.088989</ele>
        <time>2018-12-15T11:09:16Z</time>
      </trkpt>
      <trkpt lat="43.77393" lon="5.36584">
        <ele>245.57605</ele>
        <time>2018-12-15T11:09:32Z</time>
      </trkpt>
      <trkpt lat="43.77401" lon="5.36559">
        <ele>246.266296</ele>
        <time>2018-12-15T11:09:47Z</time>
      </trkpt>
      <trkpt lat="43.77406" lon="5.36533">
        <ele>246.837799</ele>
        <time>2018-12-15T11:10:03Z</time>
      </trkpt>
      <trkpt lat="43.77414" lon="5.36512">
        <ele>247.669464</ele>
        <time>2018-12-15T11:10:18Z</time>
      </trkpt>
      <trkpt lat="43.77432" lon="5.36503">
        <ele>249.40242</ele>
        <time>2018-12-15T11:10:33Z</time>
      </trkpt>
      <trkpt lat="43.7745" lon="5.36496">
        <ele>251.22551</ele>
        <time>2018-12-15T11:10:49Z</time>
      </trkpt>
      <trkpt lat="43.77465" lon="5.36475">
        <ele>252.891022</ele>
        <time>2018-12-15T11:11:04Z</time>
      </trkpt>
      <trkpt lat="43.77478" lon="5.36454">
        <ele>254.18692</ele>
        <time>2018-12-15T11:11:19Z</time>
      </trkpt>
      <trkpt lat="43.77491" lon="5.36432">
        <ele>255.346146</ele>
        <time>2018-12-15T11:11:35Z</time>
      </trkpt>
      <trkpt lat="43.77506" lon="5.36413">
        <ele>256.553711</ele>
        <time>2018-12-15T11:11:51Z</time>
      </trkpt>
      <trkpt lat="43.7752" lon="5.36393">
        <ele>257.880371</ele>
        <time>2018-12-15T11:12:06Z</time>
      </trkpt>
      <trkpt lat="43.77532" lon="5.36372">
        <ele>259.035645</ele>
        <time>2018-12-15T11:12:22Z</time>
      </trkpt>
      <trkpt lat="43.77545" lon="5.36351">
        <ele>260.28125</ele>
        <time>2018-12-15T11:12:38Z</time>
      </trkpt>
      <trkpt lat="43.77556" lon="5.36331">
        <ele>261.384247</ele>
        <time>2018-12-15T11:12:53Z</time>
      </trkpt>
      <trkpt lat="43.7757" lon="5.36314">
        <ele>262.289062</ele>
        <time>2018-12-15T11:13:08Z</time>
      </trkpt>
      <trkpt lat="43.77586" lon="5.36304">
        <ele>263.559418</ele>
        <time>2018-12-15T11:13:24Z</time>
      </trkpt>
      <trkpt lat="43.77606" lon="5.363">
        <ele>265.21936</ele>
        <time>2018-12-15T11:13:40Z</time>
      </trkpt>
      <trkpt lat="43.77624" lon="5.36314">
        <ele>267.044617</ele>
        <time>2018-12-15T11:13:56Z</time>
      </trkpt>
      <trkpt lat="43.7764" lon="5.3633">
        <ele>268.680847</ele>
        <time>2018-12-15T11:14:12Z</time>
      </trkpt>
      <trkpt lat="43.77651" lon="5.36351">
        <ele>270.043091</ele>
        <time>2018-12-15T11:14:28Z</time>
      </trkpt>
      <trkpt lat="43.77664" lon="5.3638">
        <ele>271.818024</ele>
        <time>2018-12-15T11:14:44Z</time>
      </trkpt>
      <trkpt lat="43.77676" lon="5.36408">
        <ele>273.736694</ele>
        <time>2018-12-15T11:15:00Z</time>
      </trkpt>
      <trkpt lat="43.77688" lon="5.36434">
        <ele>274.748535</ele>
        <time>2018-12-15T11:15:15Z</time>
      </trkpt>
      <trkpt lat="43.77699" lon="5.36461">
        <ele>275.337891</ele>
        <time>2018-12-15T11:15:31Z</time>
      </trkpt>
      <trkpt lat="43.77712" lon="5.36485">
        <ele>276.268982</ele>
        <time>2018-12-15T11:15:46Z</time>
      </trkpt>
      <trkpt lat="43.77726" lon="5.36506">
        <ele>277.334839</ele>
        <time>2018-12-15T11:16:02Z</time>
      </trkpt>
      <trkpt lat="43.77747" lon="5.36517">
        <ele>279.065216</ele>
        <time>2018-12-15T11:16:18Z</time>
      </trkpt>
      <trkpt lat="43.77769" lon="5.36513">
        <ele>281.269287</ele>
        <time>2018-12-15T11:16:34Z</time>
      </trkpt>
      <trkpt lat="43.77788" lon="5.36518">
        <ele>282.288818</ele>
        <time>2018-12-15T11:16:50Z</time>
      </trkpt>
      <trkpt lat="43.77799" lon="5.36531">
        <ele>282.215454</ele>
        <time>2018-12-15T11:17:06Z</time>
      </trkpt>
      <trkpt lat="43.778" lon="5.36554">
        <ele>280.607971</ele>
        <time>2018-12-15T11:17:22Z</time>
      </trkpt>
      <trkpt lat="43.77807" lon="5.36585">
        <ele>279.060394</ele>
        <time>2018-12-15T11:17:38Z</time>
      </trkpt>
      <trkpt lat="43.77831" lon="5.36592">
        <ele>281.248871</ele>
        <time>2018-12-15T11:17:54Z</time>
      </trkpt>
      <trkpt lat="43.77854" lon="5.36603">
        <ele>282.475677</ele>
        <time>2018-12-15T11:18:10Z</time>
      </trkpt>
      <trkpt lat="43.77861" lon="5.3663">
        <ele>281.803009</ele>
        <time>2018-12-15T11:18:25Z</time>
      </trkpt>
      <trkpt lat="43.7787" lon="5.3665">
        <ele>281.65741</ele>
        <time>2018-12-15T11:18:41Z</time>
      </trkpt>
      <trkpt lat="43.77887" lon="5.36655">
        <ele>283.203522</ele>
        <time>2018-12-15T11:18:56Z</time>
      </trkpt>
      <trkpt lat="43.77901" lon="5.36658">
        <ele>284.523621</ele>
        <time>2018-12-15T11:19:27Z</time>
      </trkpt>
      <trkpt lat="43.77914" lon="5.36651">
        <ele>286.144531</ele>
        <time>2018-12-15T11:19:43Z</time>
      </trkpt>
      <trkpt lat="43.77929" lon="5.36641">
        <ele>287.728943</ele>
        <time>2018-12-15T11:19:59Z</time>
      </trkpt>
      <trkpt lat="43.77943" lon="5.36629">
        <ele>289.14624</ele>
        <time>2018-12-15T11:20:14Z</time>
      </trkpt>
      <trkpt lat="43.77958" lon="5.36616">
        <ele>290.603088</ele>
        <time>2018-12-15T11:20:29Z</time>
      </trkpt>
      <trkpt lat="43.77972" lon="5.36606">
        <ele>291.820679</ele>
        <time>2018-12-15T11:20:44Z</time>
      </trkpt>
      <trkpt lat="43.77985" lon="5.36598">
        <ele>292.864441</ele>
        <time>2018-12-15T11:21:00Z</time>
      </trkpt>
      <trkpt lat="43.78" lon="5.36588">
        <ele>293.966766</ele>
        <time>2018-12-15T11:21:15Z</time>
      </trkpt>
      <trkpt lat="43.78015" lon="5.36576">
        <ele>296.287018</ele>
        <time>2018-12-15T11:21:31Z</time>
      </trkpt>
      <trkpt lat="43.78029" lon="5.36564">
        <ele>298.39447</ele>
        <time>2018-12-15T11:21:47Z</time>
      </trkpt>
      <trkpt lat="43.78042" lon="5.36551">
        <ele>300.514221</ele>
        <time>2018-12-15T11:22:02Z</time>
      </trkpt>
      <trkpt lat="43.78055" lon="5.3654">
        <ele>302.449615</ele>
        <time>2018-12-15T11:22:18Z</time>
      </trkpt>
      <trkpt lat="43.78067" lon="5.3653">
        <ele>304.268524</ele>
        <time>2018-12-15T11:22:33Z</time>
      </trkpt>
      <trkpt lat="43.78079" lon="5.3652">
        <ele>306.003967</ele>
        <time>2018-12-15T11:22:49Z</time>
      </trkpt>
      <trkpt lat="43.78094" lon="5.36508">
        <ele>309.176086</ele>
        <time>2018-12-15T11:23:05Z</time>
      </trkpt>
      <trkpt lat="43.78108" lon="5.36496">
        <ele>312.415894</ele>
        <time>2018-12-15T11:23:20Z</time>
      </trkpt>
      <trkpt lat="43.78125" lon="5.3649">
        <ele>316.181396</ele>
        <time>2018-12-15T11:23:36Z</time>
      </trkpt>
      <trkpt lat="43.78138" lon="5.36484">
        <ele>319.072205</ele>
        <time>2018-12-15T11:23:53Z</time>
      </trkpt>
      <trkpt lat="43.78151" lon="5.36476">
        <ele>321.547729</ele>
        <time>2018-12-15T11:24:11Z</time>
      </trkpt>
      <trkpt lat="43.78164" lon="5.36468">
        <ele>324.027924</ele>
        <time>2018-12-15T11:24:28Z</time>
      </trkpt>
      <trkpt lat="43.78177" lon="5.3646">
        <ele>326.551636</ele>
        <time>2018-12-15T11:24:46Z</time>
      </trkpt>
      <trkpt lat="43.7819" lon="5.36459">
        <ele>329.338623</ele>
        <time>2018-12-15T11:25:05Z</time>
      </trkpt>
      <trkpt lat="43.78205" lon="5.36457">
        <ele>332.231995</ele>
        <time>2018-12-15T11:25:21Z</time>
      </trkpt>
      <trkpt lat="43.78219" lon="5.3646">
        <ele>335.119293</ele>
        <time>2018-12-15T11:25:39Z</time>
      </trkpt>
      <trkpt lat="43.78233" lon="5.3646">
        <ele>337.956451</ele>
        <time>2018-12-15T11:25:56Z</time>
      </trkpt>
      <trkpt lat="43.78248" lon="5.3646">
        <ele>341.045593</ele>
        <time>2018-12-15T11:26:12Z</time>
      </trkpt>
      <trkpt lat="43.78261" lon="5.36448">
        <ele>344.214386</ele>
        <time>2018-12-15T11:26:27Z</time>
      </trkpt>
      <trkpt lat="43.78274" lon="5.36452">
        <ele>347.347168</ele>
        <time>2018-12-15T11:26:42Z</time>
      </trkpt>
      <trkpt lat="43.78288" lon="5.36454">
        <ele>350.70636</ele>
        <time>2018-12-15T11:27:00Z</time>
      </trkpt>
      <trkpt lat="43.78302" lon="5.36454">
        <ele>354.08252</ele>
        <time>2018-12-15T11:27:16Z</time>
      </trkpt>
      <trkpt lat="43.78315" lon="5.36462">
        <ele>356.970886</ele>
        <time>2018-12-15T11:27:33Z</time>
      </trkpt>
      <trkpt lat="43.78328" lon="5.3647">
        <ele>359.807343</ele>
        <time>2018-12-15T11:27:49Z</time>
      </trkpt>
      <trkpt lat="43.7834" lon="5.36462">
        <ele>363.012238</ele>
        <time>2018-12-15T11:28:08Z</time>
      </trkpt>
      <trkpt lat="43.78334" lon="5.36441">
        <ele>362.335449</ele>
        <time>2018-12-15T11:28:24Z</time>
      </trkpt>
      <trkpt lat="43.78347" lon="5.36436">
        <ele>365.918579</ele>
        <time>2018-12-15T11:28:41Z</time>
      </trkpt>
      <trkpt lat="43.78361" lon="5.3644">
        <ele>369.254028</ele>
        <time>2018-12-15T11:29:00Z</time>
      </trkpt>
      <trkpt lat="43.78375" lon="5.36445">
        <ele>372.137054</ele>
        <time>2018-12-15T11:29:21Z</time>
      </trkpt>
      <trkpt lat="43.78388" lon="5.36447">
        <ele>375.43103</ele>
        <time>2018-12-15T11:29:40Z</time>
      </trkpt>
      <trkpt lat="43.78402" lon="5.36451">
        <ele>378.287384</ele>
        <time>2018-12-15T11:30:01Z</time>
      </trkpt>
      <trkpt lat="43.78414" lon="5.36458">
        <ele>380.345093</ele>
        <time>2018-12-15T11:30:19Z</time>
      </trkpt>
      <trkpt lat="43.78426" lon="5.36467">
        <ele>383.523773</ele>
        <time>2018-12-15T11:30:39Z</time>
      </trkpt>
      <trkpt lat="43.78438" lon="5.36477">
        <ele>386.609619</ele>
        <time>2018-12-15T11:30:56Z</time>
      </trkpt>
      <trkpt lat="43.78449" lon="5.36487">
        <ele>389.343719</ele>
        <time>2018-12-15T11:31:15Z</time>
      </trkpt>
      <trkpt lat="43.78459" lon="5.365">
        <ele>391.408569</ele>
        <time>2018-12-15T11:31:31Z</time>
      </trkpt>
      <trkpt lat="43.78472" lon="5.36507">
        <ele>396.691345</ele>
        <time>2018-12-15T11:31:49Z</time>
      </trkpt>
      <trkpt lat="43.78484" lon="5.36517">
        <ele>401.420898</ele>
        <time>2018-12-15T11:32:06Z</time>
      </trkpt>
      <trkpt lat="43.78498" lon="5.36527">
        <ele>406.08905</ele>
        <time>2018-12-15T11:32:21Z</time>
      </trkpt>
      <trkpt lat="43.78509" lon="5.36537">
        <ele>408.376099</ele>
        <time>2018-12-15T11:32:38Z</time>
      </trkpt>
      <trkpt lat="43.78523" lon="5.36539">
        <ele>410.556549</ele>
        <time>2018-12-15T11:32:59Z</time>
      </trkpt>
      <trkpt lat="43.78537" lon="5.36545">
        <ele>412.366638</ele>
        <time>2018-12-15T11:33:16Z</time>
      </trkpt>
      <trkpt lat="43.78548" lon="5.36555">
        <ele>413.280518</ele>
        <time>2018-12-15T11:33:40Z</time>
      </trkpt>
      <trkpt lat="43.7856" lon="5.36564">
        <ele>414.003662</ele>
        <time>2018-12-15T11:33:58Z</time>
      </trkpt>
      <trkpt lat="43.78574" lon="5.36567">
        <ele>415.188171</ele>
        <time>2018-12-15T11:34:14Z</time>
      </trkpt>
      <trkpt lat="43.78587" lon="5.36571">
        <ele>416.357513</ele>
        <time>2018-12-15T11:34:34Z</time>
      </trkpt>
      <trkpt lat="43.78601" lon="5.36572">
        <ele>418.847961</ele>
        <time>2018-12-15T11:34:50Z</time>
      </trkpt>
      <trkpt lat="43.78616" lon="5.36567">
        <ele>422.537933</ele>
        <time>2018-12-15T11:35:06Z</time>
      </trkpt>
      <trkpt lat="43.78629" lon="5.36574">
        <ele>423.474121</ele>
        <time>2018-12-15T11:35:28Z</time>
      </trkpt>
      <trkpt lat="43.78642" lon="5.36578">
        <ele>425.085388</ele>
        <time>2018-12-15T11:35:46Z</time>
      </trkpt>
      <trkpt lat="43.78656" lon="5.36585">
        <ele>426.550354</ele>
        <time>2018-12-15T11:36:03Z</time>
      </trkpt>
      <trkpt lat="43.7867" lon="5.36589">
        <ele>429.099792</ele>
        <time>2018-12-15T11:36:22Z</time>
      </trkpt>
      <trkpt lat="43.78683" lon="5.36595">
        <ele>431.016357</ele>
        <time>2018-12-15T11:36:40Z</time>
      </trkpt>
      <trkpt lat="43.78695" lon="5.3661">
        <ele>433.362</ele>
        <time>2018-12-15T11:36:55Z</time>
      </trkpt>
      <trkpt lat="43.78706" lon="5.36621">
        <ele>434.626099</ele>
        <time>2018-12-15T11:37:11Z</time>
      </trkpt>
      <trkpt lat="43.78722" lon="5.36616">
        <ele>434.750732</ele>
        <time>2018-12-15T11:37:27Z</time>
      </trkpt>
      <trkpt lat="43.78738" lon="5.36616">
        <ele>435.251587</ele>
        <time>2018-12-15T11:37:43Z</time>
      </trkpt>
      <trkpt lat="43.78754" lon="5.36619">
        <ele>435.880585</ele>
        <time>2018-12-15T11:37:59Z</time>
      </trkpt>
      <trkpt lat="43.78771" lon="5.36617">
        <ele>437.094543</ele>
        <time>2018-12-15T11:38:14Z</time>
      </trkpt>
      <trkpt lat="43.78788" lon="5.36621">
        <ele>438.152771</ele>
        <time>2018-12-15T11:38:30Z</time>
      </trkpt>
      <trkpt lat="43.788" lon="5.36631">
        <ele>438.513977</ele>
        <time>2018-12-15T11:38:46Z</time>
      </trkpt>
      <trkpt lat="43.78813" lon="5.36643">
        <ele>438.618408</ele>
        <time>2018-12-15T11:39:02Z</time>
      </trkpt>
      <trkpt lat="43.78822" lon="5.36661">
        <ele>437.96283</ele>
        <time>2018-12-15T11:39:18Z</time>
      </trkpt>
      <trkpt lat="43.78841" lon="5.3667">
        <ele>439.565399</ele>
        <time>2018-12-15T11:39:33Z</time>
      </trkpt>
      <trkpt lat="43.78856" lon="5.36681">
        <ele>443.044525</ele>
        <time>2018-12-15T11:39:48Z</time>
      </trkpt>
      <trkpt lat="43.78868" lon="5.36692">
        <ele>445.707703</ele>
        <time>2018-12-15T11:40:04Z</time>
      </trkpt>
      <trkpt lat="43.78885" lon="5.36706">
        <ele>448.016846</ele>
        <time>2018-12-15T11:40:20Z</time>
      </trkpt>
      <trkpt lat="43.789" lon="5.36714">
        <ele>448.762238</ele>
        <time>2018-12-15T11:40:35Z</time>
      </trkpt>
      <trkpt lat="43.78914" lon="5.36723">
        <ele>448.835449</ele>
        <time>2018-12-15T11:40:50Z</time>
      </trkpt>
      <trkpt lat="43.78928" lon="5.36731">
        <ele>450.0737</ele>
        <time>2018-12-15T11:41:05Z</time>
      </trkpt>
      <trkpt lat="43.78945" lon="5.3674">
        <ele>451.649261</ele>
        <time>2018-12-15T11:41:21Z</time>
      </trkpt>
      <trkpt lat="43.7896" lon="5.36748">
        <ele>452.626709</ele>
        <time>2018-12-15T11:41:36Z</time>
      </trkpt>
      <trkpt lat="43.78971" lon="5.36764">
        <ele>454.66272</ele>
        <time>2018-12-15T11:41:51Z</time>
      </trkpt>
      <trkpt lat="43.78982" lon="5.36782">
        <ele>456.147003</ele>
        <time>2018-12-15T11:42:07Z</time>
      </trkpt>
      <trkpt lat="43.78992" lon="5.36797">
        <ele>456.664093</ele>
        <time>2018-12-15T11:42:22Z</time>
      </trkpt>
      <trkpt lat="43.78999" lon="5.3682">
        <ele>456.855957</ele>
        <time>2018-12-15T11:42:38Z</time>
      </trkpt>
      <trkpt lat="43.79006" lon="5.36841">
        <ele>458.985443</ele>
        <time>2018-12-15T11:42:53Z</time>
      </trkpt>
      <trkpt lat="43.79011" lon="5.36863">
        <ele>461.257355</ele>
        <time>2018-12-15T11:43:09Z</time>
      </trkpt>
      <trkpt lat="43.79024" lon="5.36881">
        <ele>464.480469</ele>
        <time>2018-12-15T11:43:25Z</time>
      </trkpt>
      <trkpt lat="43.79032" lon="5.36901">
        <ele>466.413696</ele>
        <time>2018-12-15T11:43:41Z</time>
      </trkpt>
      <trkpt lat="43.79039" lon="5.3692">
        <ele>467.726013</ele>
        <time>2018-12-15T11:43:56Z</time>
      </trkpt>
      <trkpt lat="43.79042" lon="5.36943">
        <ele>468.681396</ele>
        <time>2018-12-15T11:44:12Z</time>
      </trkpt>
      <trkpt lat="43.79049" lon="5.36963">
        <ele>469.274109</ele>
        <time>2018-12-15T11:44:28Z</time>
      </trkpt>
      <trkpt lat="43.79056" lon="5.36979">
        <ele>469.23938</ele>
        <time>2018-12-15T11:44:44Z</time>
      </trkpt>
      <trkpt lat="43.79064" lon="5.37">
        <ele>468.400818</ele>
        <time>2018-12-15T11:45:00Z</time>
      </trkpt>
      <trkpt lat="43.79071" lon="5.3702">
        <ele>469.251587</ele>
        <time>2018-12-15T11:45:15Z</time>
      </trkpt>
      <trkpt lat="43.79076" lon="5.37042">
        <ele>470.017059</ele>
        <time>2018-12-15T11:45:31Z</time>
      </trkpt>
      <trkpt lat="43.79079" lon="5.37063">
        <ele>470.785034</ele>
        <time>2018-12-15T11:45:47Z</time>
      </trkpt>
      <trkpt lat="43.79082" lon="5.37084">
        <ele>471.26886</ele>
        <time>2018-12-15T11:46:03Z</time>
      </trkpt>
      <trkpt lat="43.79084" lon="5.37103">
        <ele>474.154022</ele>
        <time>2018-12-15T11:46:19Z</time>
      </trkpt>
      <trkpt lat="43.79086" lon="5.37123">
        <ele>477.243195</ele>
        <time>2018-12-15T11:46:36Z</time>
      </trkpt>
      <trkpt lat="43.79085" lon="5.37142">
        <ele>480.208069</ele>
        <time>2018-12-15T11:46:52Z</time>
      </trkpt>
      <trkpt lat="43.79083" lon="5.37161">
        <ele>483.310211</ele>
        <time>2018-12-15T11:47:11Z</time>
      </trkpt>
      <trkpt lat="43.79085" lon="5.3718">
        <ele>486.213074</ele>
        <time>2018-12-15T11:47:28Z</time>
      </trkpt>
      <trkpt lat="43.7909" lon="5.37199">
        <ele>489.186523</ele>
        <time>2018-12-15T11:47:44Z</time>
      </trkpt>
      <trkpt lat="43.791" lon="5.37212">
        <ele>491.312225</ele>
        <time>2018-12-15T11:48:01Z</time>
      </trkpt>
      <trkpt lat="43.7911" lon="5.37225">
        <ele>493.365662</ele>
        <time>2018-12-15T11:48:18Z</time>
      </trkpt>
      <trkpt lat="43.79124" lon="5.37233">
        <ele>494.592926</ele>
        <time>2018-12-15T11:48:33Z</time>
      </trkpt>
      <trkpt lat="43.79137" lon="5.37237">
        <ele>495.201355</ele>
        <time>2018-12-15T11:48:50Z</time>
      </trkpt>
      <trkpt lat="43.7915" lon="5.37237">
        <ele>495.390533</ele>
        <time>2018-12-15T11:49:12Z</time>
      </trkpt>
      <trkpt lat="43.79164" lon="5.3724">
        <ele>495.82962</ele>
        <time>2018-12-15T11:49:28Z</time>
      </trkpt>
      <trkpt lat="43.79178" lon="5.37243">
        <ele>497.003387</ele>
        <time>2018-12-15T11:49:44Z</time>
      </trkpt>
      <trkpt lat="43.79194" lon="5.37246">
        <ele>498.596832</ele>
        <time>2018-12-15T11:50:00Z</time>
      </trkpt>
      <trkpt lat="43.79207" lon="5.3725">
        <ele>500.383484</ele>
        <time>2018-12-15T11:50:16Z</time>
      </trkpt>
      <trkpt lat="43.79217" lon="5.37264">
        <ele>501.357788</ele>
        <time>2018-12-15T11:50:32Z</time>
      </trkpt>
      <trkpt lat="43.79226" lon="5.37279">
        <ele>501.808868</ele>
        <time>2018-12-15T11:50:47Z</time>
      </trkpt>
      <trkpt lat="43.79233" lon="5.37296">
        <ele>501.72052</ele>
        <time>2018-12-15T11:51:03Z</time>
      </trkpt>
      <trkpt lat="43.79228" lon="5.37314">
        <ele>501.523682</ele>
        <time>2018-12-15T11:51:23Z</time>
      </trkpt>
      <trkpt lat="43.79236" lon="5.3733">
        <ele>500.905884</ele>
        <time>2018-12-15T11:51:39Z</time>
      </trkpt>
      <trkpt lat="43.79243" lon="5.37347">
        <ele>496.153076</ele>
        <time>2018-12-15T11:52:02Z</time>
      </trkpt>
      <trkpt lat="43.79253" lon="5.3736">
        <ele>491.537842</ele>
        <time>2018-12-15T11:52:20Z</time>
      </trkpt>
      <trkpt lat="43.7926" lon="5.37378">
        <ele>486.538208</ele>
        <time>2018-12-15T11:52:49Z</time>
      </trkpt>
      <trkpt lat="43.79271" lon="5.37388">
        <ele>484.359985</ele>
        <time>2018-12-15T11:53:12Z</time>
      </trkpt>
      <trkpt lat="43.79282" lon="5.37399">
        <ele>481.630035</ele>
        <time>2018-12-15T11:53:29Z</time>
      </trkpt>
      <trkpt lat="43.79292" lon="5.37412">
        <ele>478.616577</ele>
        <time>2018-12-15T11:53:47Z</time>
      </trkpt>
      <trkpt lat="43.79295" lon="5.37431">
        <ele>473.499969</ele>
        <time>2018-12-15T11:54:12Z</time>
      </trkpt>
      <trkpt lat="43.79305" lon="5.37444">
        <ele>470.944733</ele>
        <time>2018-12-15T11:54:31Z</time>
      </trkpt>
      <trkpt lat="43.79315" lon="5.37458">
        <ele>468.410126</ele>
        <time>2018-12-15T11:54:53Z</time>
      </trkpt>
      <trkpt lat="43.79322" lon="5.37475">
        <ele>465.014404</ele>
        <time>2018-12-15T11:55:17Z</time>
      </trkpt>
      <trkpt lat="43.79331" lon="5.3749">
        <ele>462.270477</ele>
        <time>2018-12-15T11:55:39Z</time>
      </trkpt>
      <trkpt lat="43.79336" lon="5.37507">
        <ele>461.499573</ele>
        <time>2018-12-15T11:55:56Z</time>
      </trkpt>
      <trkpt lat="43.79331" lon="5.37526">
        <ele>463.474396</ele>
        <time>2018-12-15T11:56:13Z</time>
      </trkpt>
      <trkpt lat="43.79316" lon="5.37519">
        <ele>460.443115</ele>
        <time>2018-12-15T11:56:29Z</time>
      </trkpt>
      <trkpt lat="43.79294" lon="5.37519">
        <ele>457.214783</ele>
        <time>2018-12-15T11:56:44Z</time>
      </trkpt>
      <trkpt lat="43.79277" lon="5.3752">
        <ele>455.106628</ele>
        <time>2018-12-15T11:56:59Z</time>
      </trkpt>
      <trkpt lat="43.79257" lon="5.3752">
        <ele>452.324799</ele>
        <time>2018-12-15T11:57:15Z</time>
      </trkpt>
      <trkpt lat="43.79236" lon="5.37523">
        <ele>451.028778</ele>
        <time>2018-12-15T11:57:30Z</time>
      </trkpt>
      <trkpt lat="43.79218" lon="5.37528">
        <ele>450.02417</ele>
        <time>2018-12-15T11:57:46Z</time>
      </trkpt>
      <trkpt lat="43.79202" lon="5.37537">
        <ele>448.270355</ele>
        <time>2018-12-15T11:58:01Z</time>
      </trkpt>
      <trkpt lat="43.79187" lon="5.37549">
        <ele>445.045319</ele>
        <time>2018-12-15T11:58:17Z</time>
      </trkpt>
      <trkpt lat="43.79174" lon="5.37565">
        <ele>440.250824</ele>
        <time>2018-12-15T11:58:36Z</time>
      </trkpt>
      <trkpt lat="43.79179" lon="5.37583">
        <ele>438.690918</ele>
        <time>2018-12-15T11:59:42Z</time>
      </trkpt>
      <trkpt lat="43.79185" lon="5.376">
        <ele>442.053314</ele>
        <time>2018-12-15T11:59:59Z</time>
      </trkpt>
      <trkpt lat="43.79182" lon="5.3762">
        <ele>443.18689</ele>
        <time>2018-12-15T12:00:22Z</time>
      </trkpt>
      <trkpt lat="43.79182" lon="5.37639">
        <ele>445.345093</ele>
        <time>2018-12-15T12:00:54Z</time>
      </trkpt>
      <trkpt lat="43.79184" lon="5.37658">
        <ele>447.755554</ele>
        <time>2018-12-15T12:01:18Z</time>
      </trkpt>
      <trkpt lat="43.79172" lon="5.37667">
        <ele>444.833466</ele>
        <time>2018-12-15T12:02:04Z</time>
      </trkpt>
      <trkpt lat="43.79159" lon="5.37674">
        <ele>444.996185</ele>
        <time>2018-12-15T12:02:48Z</time>
      </trkpt>
      <trkpt lat="43.79151" lon="5.3769">
        <ele>449.534454</ele>
        <time>2018-12-15T12:03:40Z</time>
      </trkpt>
      <trkpt lat="43.79142" lon="5.37703">
        <ele>453.627686</ele>
        <time>2018-12-15T12:04:27Z</time>
      </trkpt>
      <trkpt lat="43.79144" lon="5.37722">
        <ele>459.451233</ele>
        <time>2018-12-15T12:06:20Z</time>
      </trkpt>
      <trkpt lat="43.79133" lon="5.37735">
        <ele>463.968811</ele>
        <time>2018-12-15T12:07:08Z</time>
      </trkpt>
      <trkpt lat="43.79128" lon="5.37753">
        <ele>470.618317</ele>
        <time>2018-12-15T12:08:14Z</time>
      </trkpt>
      <trkpt lat="43.79133" lon="5.3777">
        <ele>477.436279</ele>
        <time>2018-12-15T12:09:14Z</time>
      </trkpt>
      <trkpt lat="43.79127" lon="5.37787">
        <ele>485.145447</ele>
        <time>2018-12-15T12:09:46Z</time>
      </trkpt>
      <trkpt lat="43.79118" lon="5.37802">
        <ele>492.501953</ele>
        <time>2018-12-15T12:11:30Z</time>
      </trkpt>
      <trkpt lat="43.79107" lon="5.37813">
        <ele>499.093658</ele>
        <time>2018-12-15T12:12:24Z</time>
      </trkpt>
      <trkpt lat="43.79094" lon="5.37821">
        <ele>504.958862</ele>
        <time>2018-12-15T12:12:51Z</time>
      </trkpt>
      <trkpt lat="43.79085" lon="5.37834">
        <ele>513.119324</ele>
        <time>2018-12-15T12:13:26Z</time>
      </trkpt>
      <trkpt lat="43.79083" lon="5.37853">
        <ele>521.709595</ele>
        <time>2018-12-15T12:15:07Z</time>
      </trkpt>
      <trkpt lat="43.79078" lon="5.37871">
        <ele>529.148926</ele>
        <time>2018-12-15T12:16:18Z</time>
      </trkpt>
      <trkpt lat="43.79076" lon="5.3789">
        <ele>537.199463</ele>
        <time>2018-12-15T12:17:21Z</time>
      </trkpt>
      <trkpt lat="43.79068" lon="5.37906">
        <ele>543.819702</ele>
        <time>2018-12-15T12:18:26Z</time>
      </trkpt>
      <trkpt lat="43.7906" lon="5.37921">
        <ele>549.645569</ele>
        <time>2018-12-15T12:19:02Z</time>
      </trkpt>
      <trkpt lat="43.79051" lon="5.37935">
        <ele>553.190796</ele>
        <time>2018-12-15T12:19:47Z</time>
      </trkpt>
      <trkpt lat="43.79044" lon="5.37952">
        <ele>557.877197</ele>
        <time>2018-12-15T12:20:38Z</time>
      </trkpt>
      <trkpt lat="43.79037" lon="5.37967">
        <ele>562.028198</ele>
        <time>2018-12-15T12:21:43Z</time>
      </trkpt>
      <trkpt lat="43.79032" lon="5.37986">
        <ele>567.071777</ele>
        <time>2018-12-15T12:22:46Z</time>
      </trkpt>
      <trkpt lat="43.79023" lon="5.38001">
        <ele>570.623169</ele>
        <time>2018-12-15T12:23:11Z</time>
      </trkpt>
      <trkpt lat="43.79017" lon="5.38017">
        <ele>572.350952</ele>
        <time>2018-12-15T12:23:40Z</time>
      </trkpt>
      <trkpt lat="43.79017" lon="5.38037">
        <ele>575.159851</ele>
        <time>2018-12-15T12:24:11Z</time>
      </trkpt>
      <trkpt lat="43.79017" lon="5.38056">
        <ele>577.849915</ele>
        <time>2018-12-15T12:24:30Z</time>
      </trkpt>
      <trkpt lat="43.79029" lon="5.38048">
        <ele>578.555969</ele>
        <time>2018-12-15T12:25:46Z</time>
      </trkpt>
      <trkpt lat="43.79032" lon="5.38067">
        <ele>581.825684</ele>
        <time>2018-12-15T12:26:48Z</time>
      </trkpt>
      <trkpt lat="43.79046" lon="5.38069">
        <ele>584.277344</ele>
        <time>2018-12-15T12:27:12Z</time>
      </trkpt>
      <trkpt lat="43.79059" lon="5.38068">
        <ele>586.191711</ele>
        <time>2018-12-15T12:27:34Z</time>
      </trkpt>
      <trkpt lat="43.79073" lon="5.38068">
        <ele>588.515686</ele>
        <time>2018-12-15T12:28:44Z</time>
      </trkpt>
      <trkpt lat="43.79084" lon="5.3808">
        <ele>592.262634</ele>
        <time>2018-12-15T12:29:10Z</time>
      </trkpt>
      <trkpt lat="43.7909" lon="5.38097">
        <ele>594.873901</ele>
        <time>2018-12-15T12:29:48Z</time>
      </trkpt>
      <trkpt lat="43.79085" lon="5.38115">
        <ele>598.981873</ele>
        <time>2018-12-15T12:30:13Z</time>
      </trkpt>
      <trkpt lat="43.79081" lon="5.38133">
        <ele>602.193481</ele>
        <time>2018-12-15T12:30:35Z</time>
      </trkpt>
      <trkpt lat="43.79074" lon="5.3815">
        <ele>604.172729</ele>
        <time>2018-12-15T12:30:55Z</time>
      </trkpt>
      <trkpt lat="43.79064" lon="5.38163">
        <ele>604.938965</ele>
        <time>2018-12-15T12:31:22Z</time>
      </trkpt>
      <trkpt lat="43.79053" lon="5.38176">
        <ele>606.056885</ele>
        <time>2018-12-15T12:31:38Z</time>
      </trkpt>
      <trkpt lat="43.79041" lon="5.38186">
        <ele>606.242249</ele>
        <time>2018-12-15T12:31:53Z</time>
      </trkpt>
      <trkpt lat="43.79032" lon="5.382">
        <ele>607.885376</ele>
        <time>2018-12-15T12:32:39Z</time>
      </trkpt>
      <trkpt lat="43.79025" lon="5.38217">
        <ele>610.200195</ele>
        <time>2018-12-15T12:32:56Z</time>
      </trkpt>
      <trkpt lat="43.79013" lon="5.38228">
        <ele>610.114685</ele>
        <time>2018-12-15T12:33:11Z</time>
      </trkpt>
      <trkpt lat="43.79003" lon="5.38242">
        <ele>611.075684</ele>
        <time>2018-12-15T12:33:28Z</time>
      </trkpt>
      <trkpt lat="43.78996" lon="5.3826">
        <ele>610.204468</ele>
        <time>2018-12-15T12:33:43Z</time>
      </trkpt>
      <trkpt lat="43.78991" lon="5.38279">
        <ele>608.083496</ele>
        <time>2018-12-15T12:33:59Z</time>
      </trkpt>
      <trkpt lat="43.79005" lon="5.38277">
        <ele>612.956787</ele>
        <time>2018-12-15T12:35:03Z</time>
      </trkpt>
      <trkpt lat="43.79019" lon="5.38277">
        <ele>616.474426</ele>
        <time>2018-12-15T12:35:22Z</time>
      </trkpt>
      <trkpt lat="43.79032" lon="5.38282">
        <ele>619.908569</ele>
        <time>2018-12-15T12:35:50Z</time>
      </trkpt>
      <trkpt lat="43.79046" lon="5.38285">
        <ele>623.497803</ele>
        <time>2018-12-15T12:36:14Z</time>
      </trkpt>
      <trkpt lat="43.79057" lon="5.38295">
        <ele>627.120728</ele>
        <time>2018-12-15T12:36:40Z</time>
      </trkpt>
      <trkpt lat="43.79071" lon="5.38298">
        <ele>631.122559</ele>
        <time>2018-12-15T12:37:03Z</time>
      </trkpt>
      <trkpt lat="43.79085" lon="5.38294">
        <ele>634.293884</ele>
        <time>2018-12-15T12:37:19Z</time>
      </trkpt>
      <trkpt lat="43.79098" lon="5.38296">
        <ele>635.571106</ele>
        <time>2018-12-15T12:37:40Z</time>
      </trkpt>
      <trkpt lat="43.79111" lon="5.38303">
        <ele>637.400269</ele>
        <time>2018-12-15T12:37:59Z</time>
      </trkpt>
      <trkpt lat="43.7912" lon="5.38317">
        <ele>640.172791</ele>
        <time>2018-12-15T12:38:25Z</time>
      </trkpt>
      <trkpt lat="43.79132" lon="5.38327">
        <ele>642.813843</ele>
        <time>2018-12-15T12:38:43Z</time>
      </trkpt>
      <trkpt lat="43.79142" lon="5.3834">
        <ele>645.13147</ele>
        <time>2018-12-15T12:39:03Z</time>
      </trkpt>
      <trkpt lat="43.79151" lon="5.38357">
        <ele>646.861267</ele>
        <time>2018-12-15T12:39:19Z</time>
      </trkpt>
      <trkpt lat="43.79161" lon="5.38369">
        <ele>649.171326</ele>
        <time>2018-12-15T12:39:38Z</time>
      </trkpt>
      <trkpt lat="43.7917" lon="5.38384">
        <ele>650.755249</ele>
        <time>2018-12-15T12:39:54Z</time>
      </trkpt>
      <trkpt lat="43.79179" lon="5.38398">
        <ele>651.237061</ele>
        <time>2018-12-15T12:40:12Z</time>
      </trkpt>
      <trkpt lat="43.79192" lon="5.38408">
        <ele>651.729065</ele>
        <time>2018-12-15T12:40:28Z</time>
      </trkpt>
      <trkpt lat="43.792" lon="5.38425">
        <ele>652.541992</ele>
        <time>2018-12-15T12:40:43Z</time>
      </trkpt>
      <trkpt lat="43.79211" lon="5.3844">
        <ele>652.881409</ele>
        <time>2018-12-15T12:40:59Z</time>
      </trkpt>
      <trkpt lat="43.79223" lon="5.38453">
        <ele>653.976074</ele>
        <time>2018-12-15T12:41:15Z</time>
      </trkpt>
      <trkpt lat="43.79236" lon="5.38466">
        <ele>655.87384</ele>
        <time>2018-12-15T12:41:30Z</time>
      </trkpt>
      <trkpt lat="43.79249" lon="5.3848">
        <ele>658.728821</ele>
        <time>2018-12-15T12:41:46Z</time>
      </trkpt>
      <trkpt lat="43.79259" lon="5.38499">
        <ele>659.827332</ele>
        <time>2018-12-15T12:42:02Z</time>
      </trkpt>
      <trkpt lat="43.79275" lon="5.38514">
        <ele>658.999023</ele>
        <time>2018-12-15T12:42:18Z</time>
      </trkpt>
      <trkpt lat="43.79284" lon="5.38535">
        <ele>660.135498</ele>
        <time>2018-12-15T12:42:33Z</time>
      </trkpt>
      <trkpt lat="43.79293" lon="5.38552">
        <ele>662.280823</ele>
        <time>2018-12-15T12:42:48Z</time>
      </trkpt>
      <trkpt lat="43.79303" lon="5.38569">
        <ele>665.492188</ele>
        <time>2018-12-15T12:43:04Z</time>
      </trkpt>
      <trkpt lat="43.79312" lon="5.38584">
        <ele>669.245728</ele>
        <time>2018-12-15T12:43:23Z</time>
      </trkpt>
      <trkpt lat="43.79315" lon="5.38603">
        <ele>672.587402</ele>
        <time>2018-12-15T12:43:45Z</time>
      </trkpt>
      <trkpt lat="43.79318" lon="5.38621">
        <ele>676.293457</ele>
        <time>2018-12-15T12:44:05Z</time>
      </trkpt>
      <trkpt lat="43.79321" lon="5.3864">
        <ele>679.952881</ele>
        <time>2018-12-15T12:44:26Z</time>
      </trkpt>
      <trkpt lat="43.79325" lon="5.38658">
        <ele>683.948975</ele>
        <time>2018-12-15T12:44:50Z</time>
      </trkpt>
      <trkpt lat="43.79328" lon="5.38676">
        <ele>687.582642</ele>
        <time>2018-12-15T12:45:14Z</time>
      </trkpt>
      <trkpt lat="43.79324" lon="5.38695">
        <ele>688.879028</ele>
        <time>2018-12-15T12:45:30Z</time>
      </trkpt>
      <trkpt lat="43.79328" lon="5.38713">
        <ele>692.33606</ele>
        <time>2018-12-15T12:45:47Z</time>
      </trkpt>
      <trkpt lat="43.79331" lon="5.38732">
        <ele>695.77179</ele>
        <time>2018-12-15T12:46:11Z</time>
      </trkpt>
      <trkpt lat="43.79339" lon="5.38747">
        <ele>699.790894</ele>
        <time>2018-12-15T12:46:33Z</time>
      </trkpt>
      <trkpt lat="43.79352" lon="5.38754">
        <ele>702.907959</ele>
        <time>2018-12-15T12:46:57Z</time>
      </trkpt>
      <trkpt lat="43.79366" lon="5.38757">
        <ele>705.851318</ele>
        <time>2018-12-15T12:47:18Z</time>
      </trkpt>
      <trkpt lat="43.79378" lon="5.38766">
        <ele>708.772034</ele>
        <time>2018-12-15T12:47:42Z</time>
      </trkpt>
      <trkpt lat="43.79388" lon="5.3878">
        <ele>711.628052</ele>
        <time>2018-12-15T12:48:05Z</time>
      </trkpt>
      <trkpt lat="43.79401" lon="5.38785">
        <ele>714.871887</ele>
        <time>2018-12-15T12:48:28Z</time>
      </trkpt>
      <trkpt lat="43.79413" lon="5.38794">
        <ele>718.298828</ele>
        <time>2018-12-15T12:48:47Z</time>
      </trkpt>
      <trkpt lat="43.79427" lon="5.38799">
        <ele>720.393433</ele>
        <time>2018-12-15T12:49:09Z</time>
      </trkpt>
      <trkpt lat="43.79438" lon="5.38809">
        <ele>722.463135</ele>
        <time>2018-12-15T12:49:26Z</time>
      </trkpt>
      <trkpt lat="43.79452" lon="5.38817">
        <ele>724.710693</ele>
        <time>2018-12-15T12:49:44Z</time>
      </trkpt>
      <trkpt lat="43.79466" lon="5.38819">
        <ele>726.49646</ele>
        <time>2018-12-15T12:50:00Z</time>
      </trkpt>
      <trkpt lat="43.79479" lon="5.38825">
        <ele>728.858093</ele>
        <time>2018-12-15T12:50:17Z</time>
      </trkpt>
      <trkpt lat="43.79491" lon="5.38835">
        <ele>731.759705</ele>
        <time>2018-12-15T12:50:34Z</time>
      </trkpt>
      <trkpt lat="43.79506" lon="5.38841">
        <ele>733.525635</ele>
        <time>2018-12-15T12:50:49Z</time>
      </trkpt>
      <trkpt lat="43.79518" lon="5.38849">
        <ele>735.05835</ele>
        <time>2018-12-15T12:51:05Z</time>
      </trkpt>
      <trkpt lat="43.79531" lon="5.38858">
        <ele>736.985168</ele>
        <time>2018-12-15T12:51:22Z</time>
      </trkpt>
      <trkpt lat="43.79541" lon="5.38872">
        <ele>738.962769</ele>
        <time>2018-12-15T12:51:39Z</time>
      </trkpt>
      <trkpt lat="43.79553" lon="5.38881">
        <ele>741.672791</ele>
        <time>2018-12-15T12:51:55Z</time>
      </trkpt>
      <trkpt lat="43.79562" lon="5.38896">
        <ele>744.327271</ele>
        <time>2018-12-15T12:52:12Z</time>
      </trkpt>
      <trkpt lat="43.79575" lon="5.38903">
        <ele>747.773193</ele>
        <time>2018-12-15T12:52:28Z</time>
      </trkpt>
      <trkpt lat="43.79589" lon="5.38905">
        <ele>750.848206</ele>
        <time>2018-12-15T12:52:52Z</time>
      </trkpt>
      <trkpt lat="43.79599" lon="5.38919">
        <ele>753.297607</ele>
        <time>2018-12-15T12:53:10Z</time>
      </trkpt>
      <trkpt lat="43.79613" lon="5.38923">
        <ele>755.131958</ele>
        <time>2018-12-15T12:53:28Z</time>
      </trkpt>
      <trkpt lat="43.79628" lon="5.38926">
        <ele>757.12439</ele>
        <time>2018-12-15T12:53:44Z</time>
      </trkpt>
      <trkpt lat="43.79641" lon="5.38933">
        <ele>758.134399</ele>
        <time>2018-12-15T12:54:07Z</time>
      </trkpt>
      <trkpt lat="43.79655" lon="5.38935">
        <ele>759.897095</ele>
        <time>2018-12-15T12:54:25Z</time>
      </trkpt>
      <trkpt lat="43.79668" lon="5.38928">
        <ele>763.162292</ele>
        <time>2018-12-15T12:54:41Z</time>
      </trkpt>
      <trkpt lat="43.79679" lon="5.38918">
        <ele>766.699463</ele>
        <time>2018-12-15T12:54:59Z</time>
      </trkpt>
      <trkpt lat="43.79693" lon="5.38914">
        <ele>769.153137</ele>
        <time>2018-12-15T12:55:19Z</time>
      </trkpt>
      <trkpt lat="43.79707" lon="5.38913">
        <ele>771.43866</ele>
        <time>2018-12-15T12:55:39Z</time>
      </trkpt>
      <trkpt lat="43.79721" lon="5.3891">
        <ele>773.835815</ele>
        <time>2018-12-15T12:55:57Z</time>
      </trkpt>
      <trkpt lat="43.79734" lon="5.38907">
        <ele>776.321411</ele>
        <time>2018-12-15T12:56:16Z</time>
      </trkpt>
      <trkpt lat="43.79745" lon="5.38894">
        <ele>779.40509</ele>
        <time>2018-12-15T12:56:41Z</time>
      </trkpt>
      <trkpt lat="43.79756" lon="5.38882">
        <ele>782.732544</ele>
        <time>2018-12-15T12:57:02Z</time>
      </trkpt>
      <trkpt lat="43.79764" lon="5.38867">
        <ele>785.721313</ele>
        <time>2018-12-15T12:57:24Z</time>
      </trkpt>
      <trkpt lat="43.79778" lon="5.38864">
        <ele>788.255798</ele>
        <time>2018-12-15T12:57:46Z</time>
      </trkpt>
      <trkpt lat="43.79792" lon="5.38859">
        <ele>791.032227</ele>
        <time>2018-12-15T12:58:11Z</time>
      </trkpt>
      <trkpt lat="43.79804" lon="5.3885">
        <ele>793.927002</ele>
        <time>2018-12-15T12:58:33Z</time>
      </trkpt>
      <trkpt lat="43.79818" lon="5.38848">
        <ele>796.30603</ele>
        <time>2018-12-15T12:58:55Z</time>
      </trkpt>
      <trkpt lat="43.79832" lon="5.38845">
        <ele>798.727478</ele>
        <time>2018-12-15T12:59:13Z</time>
      </trkpt>
      <trkpt lat="43.79844" lon="5.38855">
        <ele>799.389954</ele>
        <time>2018-12-15T12:59:50Z</time>
      </trkpt>
      <trkpt lat="43.79856" lon="5.38865">
        <ele>799.923462</ele>
        <time>2018-12-15T13:00:06Z</time>
      </trkpt>
      <trkpt lat="43.79875" lon="5.38876">
        <ele>801.359436</ele>
        <time>2018-12-15T13:00:21Z</time>
      </trkpt>
      <trkpt lat="43.79888" lon="5.38881">
        <ele>802.73822</ele>
        <time>2018-12-15T13:00:36Z</time>
      </trkpt>
      <trkpt lat="43.79904" lon="5.38884">
        <ele>804.654785</ele>
        <time>2018-12-15T13:00:52Z</time>
      </trkpt>
      <trkpt lat="43.7992" lon="5.38889">
        <ele>805.966125</ele>
        <time>2018-12-15T13:01:07Z</time>
      </trkpt>
      <trkpt lat="43.79937" lon="5.38893">
        <ele>805.82251</ele>
        <time>2018-12-15T13:01:22Z</time>
      </trkpt>
      <trkpt lat="43.79956" lon="5.38901">
        <ele>806.003784</ele>
        <time>2018-12-15T13:01:38Z</time>
      </trkpt>
      <trkpt lat="43.79973" lon="5.38911">
        <ele>806.729736</ele>
        <time>2018-12-15T13:01:53Z</time>
      </trkpt>
      <trkpt lat="43.79992" lon="5.38924">
        <ele>806.798096</ele>
        <time>2018-12-15T13:02:09Z</time>
      </trkpt>
      <trkpt lat="43.80011" lon="5.38933">
        <ele>806.814148</ele>
        <time>2018-12-15T13:02:25Z</time>
      </trkpt>
      <trkpt lat="43.8003" lon="5.3894">
        <ele>807.311035</ele>
        <time>2018-12-15T13:02:40Z</time>
      </trkpt>
      <trkpt lat="43.80047" lon="5.38945">
        <ele>808.189941</ele>
        <time>2018-12-15T13:02:55Z</time>
      </trkpt>
      <trkpt lat="43.80065" lon="5.38956">
        <ele>809.374207</ele>
        <time>2018-12-15T13:03:11Z</time>
      </trkpt>
      <trkpt lat="43.80079" lon="5.38965">
        <ele>810.716736</ele>
        <time>2018-12-15T13:03:26Z</time>
      </trkpt>
      <trkpt lat="43.80092" lon="5.38975">
        <ele>813.056885</ele>
        <time>2018-12-15T13:03:43Z</time>
      </trkpt>
      <trkpt lat="43.80104" lon="5.38984">
        <ele>815.986572</ele>
        <time>2018-12-15T13:03:59Z</time>
      </trkpt>
      <trkpt lat="43.80118" lon="5.38986">
        <ele>819.10022</ele>
        <time>2018-12-15T13:04:16Z</time>
      </trkpt>
      <trkpt lat="43.80131" lon="5.38993">
        <ele>822.401733</ele>
        <time>2018-12-15T13:04:34Z</time>
      </trkpt>
      <trkpt lat="43.80145" lon="5.38994">
        <ele>825.608276</ele>
        <time>2018-12-15T13:04:57Z</time>
      </trkpt>
      <trkpt lat="43.80158" lon="5.39002">
        <ele>828.730713</ele>
        <time>2018-12-15T13:05:18Z</time>
      </trkpt>
      <trkpt lat="43.80171" lon="5.39009">
        <ele>831.009399</ele>
        <time>2018-12-15T13:05:37Z</time>
      </trkpt>
      <trkpt lat="43.80183" lon="5.39019">
        <ele>832.791504</ele>
        <time>2018-12-15T13:06:03Z</time>
      </trkpt>
      <trkpt lat="43.80195" lon="5.39027">
        <ele>835.295227</ele>
        <time>2018-12-15T13:06:20Z</time>
      </trkpt>
      <trkpt lat="43.80208" lon="5.39035">
        <ele>837.850098</ele>
        <time>2018-12-15T13:06:48Z</time>
      </trkpt>
      <trkpt lat="43.80221" lon="5.39039">
        <ele>841.042603</ele>
        <time>2018-12-15T13:07:07Z</time>
      </trkpt>
      <trkpt lat="43.80235" lon="5.39043">
        <ele>844.612183</ele>
        <time>2018-12-15T13:07:27Z</time>
      </trkpt>
      <trkpt lat="43.80248" lon="5.39046">
        <ele>848.122375</ele>
        <time>2018-12-15T13:07:43Z</time>
      </trkpt>
      <trkpt lat="43.80263" lon="5.39045">
        <ele>850.411255</ele>
        <time>2018-12-15T13:08:05Z</time>
      </trkpt>
      <trkpt lat="43.80276" lon="5.39048">
        <ele>852.630005</ele>
        <time>2018-12-15T13:08:25Z</time>
      </trkpt>
      <trkpt lat="43.80289" lon="5.39057">
        <ele>855.06958</ele>
        <time>2018-12-15T13:08:49Z</time>
      </trkpt>
      <trkpt lat="43.80301" lon="5.39064">
        <ele>857.776611</ele>
        <time>2018-12-15T13:09:11Z</time>
      </trkpt>
      <trkpt lat="43.80314" lon="5.39072">
        <ele>860.886658</ele>
        <time>2018-12-15T13:09:29Z</time>
      </trkpt>
      <trkpt lat="43.80327" lon="5.39082">
        <ele>864.446838</ele>
        <time>2018-12-15T13:09:45Z</time>
      </trkpt>
      <trkpt lat="43.8034" lon="5.39087">
        <ele>866.073242</ele>
        <time>2018-12-15T13:10:01Z</time>
      </trkpt>
      <trkpt lat="43.80353" lon="5.39094">
        <ele>866.443481</ele>
        <time>2018-12-15T13:10:16Z</time>
      </trkpt>
      <trkpt lat="43.80364" lon="5.39108">
        <ele>867.463501</ele>
        <time>2018-12-15T13:10:31Z</time>
      </trkpt>
      <trkpt lat="43.8037" lon="5.39125">
        <ele>868.953613</ele>
        <time>2018-12-15T13:10:48Z</time>
      </trkpt>
      <trkpt lat="43.8038" lon="5.3914">
        <ele>870.804932</ele>
        <time>2018-12-15T13:11:04Z</time>
      </trkpt>
      <trkpt lat="43.80389" lon="5.39156">
        <ele>873.235596</ele>
        <time>2018-12-15T13:11:20Z</time>
      </trkpt>
      <trkpt lat="43.80394" lon="5.39174">
        <ele>874.877197</ele>
        <time>2018-12-15T13:11:38Z</time>
      </trkpt>
      <trkpt lat="43.80405" lon="5.39191">
        <ele>876.229248</ele>
        <time>2018-12-15T13:11:54Z</time>
      </trkpt>
      <trkpt lat="43.80417" lon="5.39208">
        <ele>877.990051</ele>
        <time>2018-12-15T13:12:10Z</time>
      </trkpt>
      <trkpt lat="43.80429" lon="5.39223">
        <ele>878.171753</ele>
        <time>2018-12-15T13:12:25Z</time>
      </trkpt>
      <trkpt lat="43.80442" lon="5.3924">
        <ele>879.296387</ele>
        <time>2018-12-15T13:12:41Z</time>
      </trkpt>
      <trkpt lat="43.80455" lon="5.39255">
        <ele>880.638184</ele>
        <time>2018-12-15T13:12:56Z</time>
      </trkpt>
      <trkpt lat="43.80468" lon="5.39266">
        <ele>881.567139</ele>
        <time>2018-12-15T13:13:12Z</time>
      </trkpt>
      <trkpt lat="43.80481" lon="5.39278">
        <ele>882.861816</ele>
        <time>2018-12-15T13:13:28Z</time>
      </trkpt>
      <trkpt lat="43.80492" lon="5.39288">
        <ele>884.385986</ele>
        <time>2018-12-15T13:13:44Z</time>
      </trkpt>
      <trkpt lat="43.80504" lon="5.393">
        <ele>885.851074</ele>
        <time>2018-12-15T13:14:00Z</time>
      </trkpt>
      <trkpt lat="43.80519" lon="5.39311">
        <ele>886.665649</ele>
        <time>2018-12-15T13:14:15Z</time>
      </trkpt>
      <trkpt lat="43.80534" lon="5.3932">
        <ele>887.690552</ele>
        <time>2018-12-15T13:14:31Z</time>
      </trkpt>
      <trkpt lat="43.80548" lon="5.39329">
        <ele>888.933228</ele>
        <time>2018-12-15T13:14:46Z</time>
      </trkpt>
      <trkpt lat="43.80561" lon="5.39337">
        <ele>889.637085</ele>
        <time>2018-12-15T13:15:20Z</time>
      </trkpt>
      <trkpt lat="43.80576" lon="5.39346">
        <ele>889.960449</ele>
        <time>2018-12-15T13:15:35Z</time>
      </trkpt>
      <trkpt lat="43.80589" lon="5.39354">
        <ele>889.415588</ele>
        <time>2018-12-15T13:15:51Z</time>
      </trkpt>
      <trkpt lat="43.80604" lon="5.39367">
        <ele>887.340393</ele>
        <time>2018-12-15T13:16:07Z</time>
      </trkpt>
      <trkpt lat="43.80613" lon="5.39389">
        <ele>885.70697</ele>
        <time>2018-12-15T13:16:22Z</time>
      </trkpt>
      <trkpt lat="43.80619" lon="5.39416">
        <ele>884.463928</ele>
        <time>2018-12-15T13:16:37Z</time>
      </trkpt>
      <trkpt lat="43.80626" lon="5.39442">
        <ele>881.965759</ele>
        <time>2018-12-15T13:16:53Z</time>
      </trkpt>
      <trkpt lat="43.80629" lon="5.39466">
        <ele>879.984253</ele>
        <time>2018-12-15T13:17:08Z</time>
      </trkpt>
      <trkpt lat="43.8063" lon="5.39492">
        <ele>878.031128</ele>
        <time>2018-12-15T13:17:23Z</time>
      </trkpt>
      <trkpt lat="43.80633" lon="5.39522">
        <ele>876.238159</ele>
        <time>2018-12-15T13:17:39Z</time>
      </trkpt>
      <trkpt lat="43.80636" lon="5.39548">
        <ele>875.004761</ele>
        <time>2018-12-15T13:17:55Z</time>
      </trkpt>
      <trkpt lat="43.80645" lon="5.39572">
        <ele>874.74585</ele>
        <time>2018-12-15T13:18:10Z</time>
      </trkpt>
      <trkpt lat="43.80651" lon="5.39592">
        <ele>875.246582</ele>
        <time>2018-12-15T13:18:26Z</time>
      </trkpt>
      <trkpt lat="43.8066" lon="5.39616">
        <ele>876.644653</ele>
        <time>2018-12-15T13:18:42Z</time>
      </trkpt>
      <trkpt lat="43.80664" lon="5.39636">
        <ele>877.356934</ele>
        <time>2018-12-15T13:19:03Z</time>
      </trkpt>
      <trkpt lat="43.8067" lon="5.39658">
        <ele>877.54364</ele>
        <time>2018-12-15T13:19:18Z</time>
      </trkpt>
      <trkpt lat="43.80671" lon="5.39678">
        <ele>878.41626</ele>
        <time>2018-12-15T13:19:34Z</time>
      </trkpt>
      <trkpt lat="43.80673" lon="5.39697">
        <ele>879.682983</ele>
        <time>2018-12-15T13:19:50Z</time>
      </trkpt>
      <trkpt lat="43.80678" lon="5.39715">
        <ele>880.79187</ele>
        <time>2018-12-15T13:20:06Z</time>
      </trkpt>
      <trkpt lat="43.8068" lon="5.39735">
        <ele>882.317139</ele>
        <time>2018-12-15T13:20:22Z</time>
      </trkpt>
      <trkpt lat="43.80686" lon="5.39753">
        <ele>883.475464</ele>
        <time>2018-12-15T13:20:37Z</time>
      </trkpt>
      <trkpt lat="43.80693" lon="5.3977">
        <ele>884.61554</ele>
        <time>2018-12-15T13:20:53Z</time>
      </trkpt>
      <trkpt lat="43.80695" lon="5.39788">
        <ele>886.043091</ele>
        <time>2018-12-15T13:21:08Z</time>
      </trkpt>
      <trkpt lat="43.80699" lon="5.39809">
        <ele>887.753418</ele>
        <time>2018-12-15T13:21:23Z</time>
      </trkpt>
      <trkpt lat="43.80706" lon="5.39828">
        <ele>889.451477</ele>
        <time>2018-12-15T13:21:39Z</time>
      </trkpt>
      <trkpt lat="43.80715" lon="5.39843">
        <ele>890.21167</ele>
        <time>2018-12-15T13:21:54Z</time>
      </trkpt>
      <trkpt lat="43.80725" lon="5.39858">
        <ele>890.494446</ele>
        <time>2018-12-15T13:22:09Z</time>
      </trkpt>
      <trkpt lat="43.80737" lon="5.39873">
        <ele>890.76886</ele>
        <time>2018-12-15T13:22:25Z</time>
      </trkpt>
      <trkpt lat="43.80755" lon="5.39883">
        <ele>890.650635</ele>
        <time>2018-12-15T13:22:40Z</time>
      </trkpt>
      <trkpt lat="43.80775" lon="5.39893">
        <ele>889.447144</ele>
        <time>2018-12-15T13:22:56Z</time>
      </trkpt>
      <trkpt lat="43.80796" lon="5.39896">
        <ele>888.239197</ele>
        <time>2018-12-15T13:23:12Z</time>
      </trkpt>
      <trkpt lat="43.80812" lon="5.39898">
        <ele>887.372437</ele>
        <time>2018-12-15T13:23:27Z</time>
      </trkpt>
      <trkpt lat="43.80831" lon="5.39898">
        <ele>886.217896</ele>
        <time>2018-12-15T13:23:43Z</time>
      </trkpt>
      <trkpt lat="43.80853" lon="5.39898">
        <ele>883.501343</ele>
        <time>2018-12-15T13:23:59Z</time>
      </trkpt>
      <trkpt lat="43.80871" lon="5.39895">
        <ele>881.000854</ele>
        <time>2018-12-15T13:24:14Z</time>
      </trkpt>
      <trkpt lat="43.80894" lon="5.39881">
        <ele>878.319031</ele>
        <time>2018-12-15T13:24:30Z</time>
      </trkpt>
      <trkpt lat="43.80889" lon="5.39863">
        <ele>879.227844</ele>
        <time>2018-12-15T13:24:45Z</time>
      </trkpt>
      <trkpt lat="43.80893" lon="5.39841">
        <ele>879.298462</ele>
        <time>2018-12-15T13:25:01Z</time>
      </trkpt>
      <trkpt lat="43.80891" lon="5.39819">
        <ele>878.022705</ele>
        <time>2018-12-15T13:25:16Z</time>
      </trkpt>
      <trkpt lat="43.80885" lon="5.39797">
        <ele>875.871948</ele>
        <time>2018-12-15T13:25:31Z</time>
      </trkpt>
      <trkpt lat="43.80876" lon="5.39782">
        <ele>874.313232</ele>
        <time>2018-12-15T13:25:47Z</time>
      </trkpt>
      <trkpt lat="43.8088" lon="5.39763">
        <ele>872.005249</ele>
        <time>2018-12-15T13:26:03Z</time>
      </trkpt>
      <trkpt lat="43.80873" lon="5.39742">
        <ele>869.093384</ele>
        <time>2018-12-15T13:26:18Z</time>
      </trkpt>
      <trkpt lat="43.80866" lon="5.3972">
        <ele>865.492493</ele>
        <time>2018-12-15T13:26:34Z</time>
      </trkpt>
      <trkpt lat="43.80859" lon="5.397">
        <ele>861.862793</ele>
        <time>2018-12-15T13:26:50Z</time>
      </trkpt>
      <trkpt lat="43.80856" lon="5.3968">
        <ele>858.352539</ele>
        <time>2018-12-15T13:27:05Z</time>
      </trkpt>
      <trkpt lat="43.80854" lon="5.39661">
        <ele>854.93103</ele>
        <time>2018-12-15T13:27:21Z</time>
      </trkpt>
      <trkpt lat="43.80847" lon="5.39643">
        <ele>851.02063</ele>
        <time>2018-12-15T13:27:36Z</time>
      </trkpt>
      <trkpt lat="43.80842" lon="5.39625">
        <ele>847.25885</ele>
        <time>2018-12-15T13:27:51Z</time>
      </trkpt>
      <trkpt lat="43.80846" lon="5.39607">
        <ele>843.855164</ele>
        <time>2018-12-15T13:28:11Z</time>
      </trkpt>
      <trkpt lat="43.80843" lon="5.39588">
        <ele>840.062744</ele>
        <time>2018-12-15T13:28:27Z</time>
      </trkpt>
      <trkpt lat="43.80854" lon="5.39574">
        <ele>837.884399</ele>
        <time>2018-12-15T13:29:05Z</time>
      </trkpt>
      <trkpt lat="43.80853" lon="5.39548">
        <ele>834.01062</ele>
        <time>2018-12-15T13:29:21Z</time>
      </trkpt>
      <trkpt lat="43.80856" lon="5.39529">
        <ele>830.965881</ele>
        <time>2018-12-15T13:29:37Z</time>
      </trkpt>
      <trkpt lat="43.80861" lon="5.39509">
        <ele>827.452698</ele>
        <time>2018-12-15T13:29:52Z</time>
      </trkpt>
      <trkpt lat="43.80864" lon="5.39487">
        <ele>823.797974</ele>
        <time>2018-12-15T13:30:07Z</time>
      </trkpt>
      <trkpt lat="43.80852" lon="5.39458">
        <ele>822.481384</ele>
        <time>2018-12-15T13:30:22Z</time>
      </trkpt>
      <trkpt lat="43.80849" lon="5.39432">
        <ele>820.789734</ele>
        <time>2018-12-15T13:30:38Z</time>
      </trkpt>
      <trkpt lat="43.80848" lon="5.39411">
        <ele>819.399963</ele>
        <time>2018-12-15T13:30:53Z</time>
      </trkpt>
      <trkpt lat="43.8085" lon="5.3939">
        <ele>817.845825</ele>
        <time>2018-12-15T13:31:09Z</time>
      </trkpt>
      <trkpt lat="43.8085" lon="5.39367">
        <ele>817.014771</ele>
        <time>2018-12-15T13:31:24Z</time>
      </trkpt>
      <trkpt lat="43.80845" lon="5.3934">
        <ele>817.751587</ele>
        <time>2018-12-15T13:31:40Z</time>
      </trkpt>
      <trkpt lat="43.80845" lon="5.39319">
        <ele>816.54187</ele>
        <time>2018-12-15T13:31:55Z</time>
      </trkpt>
      <trkpt lat="43.80845" lon="5.39296">
        <ele>814.292114</ele>
        <time>2018-12-15T13:32:11Z</time>
      </trkpt>
      <trkpt lat="43.8084" lon="5.3927">
        <ele>813.736816</ele>
        <time>2018-12-15T13:32:27Z</time>
      </trkpt>
      <trkpt lat="43.80826" lon="5.39253">
        <ele>818.403625</ele>
        <time>2018-12-15T13:32:42Z</time>
      </trkpt>
      <trkpt lat="43.80825" lon="5.3923">
        <ele>815.125549</ele>
        <time>2018-12-15T13:32:57Z</time>
      </trkpt>
      <trkpt lat="43.80815" lon="5.39205">
        <ele>814.738586</ele>
        <time>2018-12-15T13:33:12Z</time>
      </trkpt>
      <trkpt lat="43.80805" lon="5.39181">
        <ele>814.31189</ele>
        <time>2018-12-15T13:33:28Z</time>
      </trkpt>
      <trkpt lat="43.80795" lon="5.39157">
        <ele>813.803223</ele>
        <time>2018-12-15T13:33:43Z</time>
      </trkpt>
      <trkpt lat="43.80784" lon="5.39131">
        <ele>813.252441</ele>
        <time>2018-12-15T13:33:58Z</time>
      </trkpt>
      <trkpt lat="43.80775" lon="5.39105">
        <ele>811.83905</ele>
        <time>2018-12-15T13:34:14Z</time>
      </trkpt>
      <trkpt lat="43.80771" lon="5.39076">
        <ele>808.922485</ele>
        <time>2018-12-15T13:34:30Z</time>
      </trkpt>
      <trkpt lat="43.80774" lon="5.39051">
        <ele>803.734436</ele>
        <time>2018-12-15T13:34:45Z</time>
      </trkpt>
      <trkpt lat="43.80769" lon="5.39023">
        <ele>801.81604</ele>
        <time>2018-12-15T13:35:01Z</time>
      </trkpt>
      <trkpt lat="43.80764" lon="5.39004">
        <ele>801.125732</ele>
        <time>2018-12-15T13:35:17Z</time>
      </trkpt>
      <trkpt lat="43.80757" lon="5.38975">
        <ele>798.163757</ele>
        <time>2018-12-15T13:35:32Z</time>
      </trkpt>
      <trkpt lat="43.8075" lon="5.38948">
        <ele>795.155762</ele>
        <time>2018-12-15T13:35:47Z</time>
      </trkpt>
      <trkpt lat="43.80743" lon="5.38924">
        <ele>789.831116</ele>
        <time>2018-12-15T13:36:02Z</time>
      </trkpt>
      <trkpt lat="43.80736" lon="5.38908">
        <ele>787.153931</ele>
        <time>2018-12-15T13:36:45Z</time>
      </trkpt>
      <trkpt lat="43.80736" lon="5.38884">
        <ele>784.8125</ele>
        <time>2018-12-15T13:37:01Z</time>
      </trkpt>
      <trkpt lat="43.80738" lon="5.38866">
        <ele>783.210754</ele>
        <time>2018-12-15T13:37:16Z</time>
      </trkpt>
      <trkpt lat="43.80739" lon="5.38833">
        <ele>780.296509</ele>
        <time>2018-12-15T13:37:32Z</time>
      </trkpt>
      <trkpt lat="43.80731" lon="5.38811">
        <ele>779.709473</ele>
        <time>2018-12-15T13:37:47Z</time>
      </trkpt>
      <trkpt lat="43.80723" lon="5.38794">
        <ele>778.415222</ele>
        <time>2018-12-15T13:38:30Z</time>
      </trkpt>
      <trkpt lat="43.80715" lon="5.3881">
        <ele>776.712036</ele>
        <time>2018-12-15T13:38:49Z</time>
      </trkpt>
      <trkpt lat="43.8071" lon="5.38837">
        <ele>776.170715</ele>
        <time>2018-12-15T13:39:04Z</time>
      </trkpt>
      <trkpt lat="43.80699" lon="5.38858">
        <ele>778.228271</ele>
        <time>2018-12-15T13:39:20Z</time>
      </trkpt>
      <trkpt lat="43.80683" lon="5.38873">
        <ele>779.371216</ele>
        <time>2018-12-15T13:39:35Z</time>
      </trkpt>
      <trkpt lat="43.80664" lon="5.38876">
        <ele>779.143921</ele>
        <time>2018-12-15T13:39:50Z</time>
      </trkpt>
      <trkpt lat="43.80642" lon="5.38876">
        <ele>781.857849</ele>
        <time>2018-12-15T13:40:05Z</time>
      </trkpt>
      <trkpt lat="43.80651" lon="5.38849">
        <ele>774.865784</ele>
        <time>2018-12-15T13:40:21Z</time>
      </trkpt>
      <trkpt lat="43.80668" lon="5.38836">
        <ele>769.762085</ele>
        <time>2018-12-15T13:40:36Z</time>
      </trkpt>
      <trkpt lat="43.80661" lon="5.3881">
        <ele>767.842773</ele>
        <time>2018-12-15T13:40:51Z</time>
      </trkpt>
      <trkpt lat="43.80651" lon="5.38797">
        <ele>767.210205</ele>
        <time>2018-12-15T13:41:20Z</time>
      </trkpt>
      <trkpt lat="43.80642" lon="5.38771">
        <ele>764.194458</ele>
        <time>2018-12-15T13:41:35Z</time>
      </trkpt>
      <trkpt lat="43.8063" lon="5.38753">
        <ele>760.785767</ele>
        <time>2018-12-15T13:41:51Z</time>
      </trkpt>
      <trkpt lat="43.80617" lon="5.38727">
        <ele>756.28772</ele>
        <time>2018-12-15T13:42:07Z</time>
      </trkpt>
      <trkpt lat="43.80604" lon="5.38706">
        <ele>750.923584</ele>
        <time>2018-12-15T13:42:23Z</time>
      </trkpt>
      <trkpt lat="43.80595" lon="5.38684">
        <ele>744.928101</ele>
        <time>2018-12-15T13:42:38Z</time>
      </trkpt>
      <trkpt lat="43.80586" lon="5.38663">
        <ele>738.364807</ele>
        <time>2018-12-15T13:42:53Z</time>
      </trkpt>
      <trkpt lat="43.8058" lon="5.38642">
        <ele>734.490784</ele>
        <time>2018-12-15T13:43:08Z</time>
      </trkpt>
      <trkpt lat="43.80567" lon="5.3863">
        <ele>733.475464</ele>
        <time>2018-12-15T13:43:24Z</time>
      </trkpt>
      <trkpt lat="43.80552" lon="5.38621">
        <ele>733.04834</ele>
        <time>2018-12-15T13:43:40Z</time>
      </trkpt>
      <trkpt lat="43.80537" lon="5.38603">
        <ele>730.204712</ele>
        <time>2018-12-15T13:43:55Z</time>
      </trkpt>
      <trkpt lat="43.80529" lon="5.38577">
        <ele>725.251709</ele>
        <time>2018-12-15T13:44:11Z</time>
      </trkpt>
      <trkpt lat="43.80537" lon="5.38557">
        <ele>721.319214</ele>
        <time>2018-12-15T13:44:27Z</time>
      </trkpt>
      <trkpt lat="43.80547" lon="5.38533">
        <ele>716.700317</ele>
        <time>2018-12-15T13:44:42Z</time>
      </trkpt>
      <trkpt lat="43.80538" lon="5.38515">
        <ele>713.864136</ele>
        <time>2018-12-15T13:45:03Z</time>
      </trkpt>
      <trkpt lat="43.8054" lon="5.38496">
        <ele>710.399963</ele>
        <time>2018-12-15T13:45:24Z</time>
      </trkpt>
      <trkpt lat="43.80533" lon="5.38472">
        <ele>706.779053</ele>
        <time>2018-12-15T13:45:39Z</time>
      </trkpt>
      <trkpt lat="43.80524" lon="5.38487">
        <ele>709.91864</ele>
        <time>2018-12-15T13:46:17Z</time>
      </trkpt>
      <trkpt lat="43.80514" lon="5.385">
        <ele>712.356018</ele>
        <time>2018-12-15T13:46:38Z</time>
      </trkpt>
      <trkpt lat="43.80505" lon="5.38486">
        <ele>711.434326</ele>
        <time>2018-12-15T13:47:36Z</time>
      </trkpt>
      <trkpt lat="43.80495" lon="5.38472">
        <ele>713.080872</ele>
        <time>2018-12-15T13:47:53Z</time>
      </trkpt>
      <trkpt lat="43.80494" lon="5.38453">
        <ele>712.219055</ele>
        <time>2018-12-15T13:48:17Z</time>
      </trkpt>
      <trkpt lat="43.80494" lon="5.38432">
        <ele>710.369446</ele>
        <time>2018-12-15T13:48:33Z</time>
      </trkpt>
      <trkpt lat="43.80492" lon="5.38411">
        <ele>709.92749</ele>
        <time>2018-12-15T13:48:48Z</time>
      </trkpt>
      <trkpt lat="43.80495" lon="5.38387">
        <ele>710.00769</ele>
        <time>2018-12-15T13:49:04Z</time>
      </trkpt>
      <trkpt lat="43.80498" lon="5.38366">
        <ele>710.289856</ele>
        <time>2018-12-15T13:49:19Z</time>
      </trkpt>
      <trkpt lat="43.80497" lon="5.38347">
        <ele>711.812622</ele>
        <time>2018-12-15T13:49:44Z</time>
      </trkpt>
      <trkpt lat="43.805" lon="5.38329">
        <ele>712.121765</ele>
        <time>2018-12-15T13:50:02Z</time>
      </trkpt>
      <trkpt lat="43.80495" lon="5.38311">
        <ele>713.285889</ele>
        <time>2018-12-15T13:50:27Z</time>
      </trkpt>
      <trkpt lat="43.80488" lon="5.38293">
        <ele>714.065613</ele>
        <time>2018-12-15T13:50:43Z</time>
      </trkpt>
      <trkpt lat="43.80494" lon="5.38266">
        <ele>713.674561</ele>
        <time>2018-12-15T13:50:59Z</time>
      </trkpt>
      <trkpt lat="43.80503" lon="5.38241">
        <ele>712.594971</ele>
        <time>2018-12-15T13:51:15Z</time>
      </trkpt>
      <trkpt lat="43.80509" lon="5.38216">
        <ele>710.001892</ele>
        <time>2018-12-15T13:51:30Z</time>
      </trkpt>
      <trkpt lat="43.80513" lon="5.38183">
        <ele>708.352783</ele>
        <time>2018-12-15T13:51:45Z</time>
      </trkpt>
      <trkpt lat="43.80516" lon="5.38158">
        <ele>707.635986</ele>
        <time>2018-12-15T13:52:00Z</time>
      </trkpt>
      <trkpt lat="43.80518" lon="5.38133">
        <ele>708.302612</ele>
        <time>2018-12-15T13:52:15Z</time>
      </trkpt>
      <trkpt lat="43.80516" lon="5.38107">
        <ele>709.527771</ele>
        <time>2018-12-15T13:52:31Z</time>
      </trkpt>
      <trkpt lat="43.80519" lon="5.38081">
        <ele>710.458801</ele>
        <time>2018-12-15T13:52:47Z</time>
      </trkpt>
      <trkpt lat="43.8052" lon="5.38062">
        <ele>712.716431</ele>
        <time>2018-12-15T13:53:03Z</time>
      </trkpt>
      <trkpt lat="43.80519" lon="5.38041">
        <ele>715.348999</ele>
        <time>2018-12-15T13:53:19Z</time>
      </trkpt>
      <trkpt lat="43.80521" lon="5.3802">
        <ele>717.688965</ele>
        <time>2018-12-15T13:53:34Z</time>
      </trkpt>
      <trkpt lat="43.80523" lon="5.37998">
        <ele>720.245972</ele>
        <time>2018-12-15T13:53:50Z</time>
      </trkpt>
      <trkpt lat="43.80522" lon="5.37978">
        <ele>722.178772</ele>
        <time>2018-12-15T13:54:06Z</time>
      </trkpt>
      <trkpt lat="43.80522" lon="5.37957">
        <ele>724.112061</ele>
        <time>2018-12-15T13:54:22Z</time>
      </trkpt>
      <trkpt lat="43.80522" lon="5.37935">
        <ele>726.091736</ele>
        <time>2018-12-15T13:54:37Z</time>
      </trkpt>
      <trkpt lat="43.80518" lon="5.37912">
        <ele>728.23584</ele>
        <time>2018-12-15T13:54:53Z</time>
      </trkpt>
      <trkpt lat="43.80521" lon="5.37892">
        <ele>727.527466</ele>
        <time>2018-12-15T13:55:15Z</time>
      </trkpt>
      <trkpt lat="43.80526" lon="5.37874">
        <ele>726.450562</ele>
        <time>2018-12-15T13:55:38Z</time>
      </trkpt>
      <trkpt lat="43.80536" lon="5.37849">
        <ele>724.505859</ele>
        <time>2018-12-15T13:55:53Z</time>
      </trkpt>
      <trkpt lat="43.8055" lon="5.37824">
        <ele>722.348328</ele>
        <time>2018-12-15T13:56:09Z</time>
      </trkpt>
      <trkpt lat="43.8056" lon="5.378">
        <ele>721.180908</ele>
        <time>2018-12-15T13:56:24Z</time>
      </trkpt>
      <trkpt lat="43.80567" lon="5.37771">
        <ele>720.952515</ele>
        <time>2018-12-15T13:56:40Z</time>
      </trkpt>
      <trkpt lat="43.80576" lon="5.37746">
        <ele>721.181824</ele>
        <time>2018-12-15T13:56:56Z</time>
      </trkpt>
      <trkpt lat="43.80587" lon="5.37723">
        <ele>721.286682</ele>
        <time>2018-12-15T13:57:11Z</time>
      </trkpt>
      <trkpt lat="43.80597" lon="5.37704">
        <ele>720.616333</ele>
        <time>2018-12-15T13:57:26Z</time>
      </trkpt>
      <trkpt lat="43.80604" lon="5.37678">
        <ele>721.833679</ele>
        <time>2018-12-15T13:57:42Z</time>
      </trkpt>
      <trkpt lat="43.80608" lon="5.37651">
        <ele>721.576355</ele>
        <time>2018-12-15T13:57:57Z</time>
      </trkpt>
      <trkpt lat="43.80606" lon="5.37624">
        <ele>720.025513</ele>
        <time>2018-12-15T13:58:12Z</time>
      </trkpt>
      <trkpt lat="43.80609" lon="5.37593">
        <ele>717.814087</ele>
        <time>2018-12-15T13:58:28Z</time>
      </trkpt>
      <trkpt lat="43.80609" lon="5.37563">
        <ele>716.250916</ele>
        <time>2018-12-15T13:58:43Z</time>
      </trkpt>
      <trkpt lat="43.80605" lon="5.37533">
        <ele>715.279968</ele>
        <time>2018-12-15T13:58:59Z</time>
      </trkpt>
      <trkpt lat="43.80605" lon="5.37505">
        <ele>713.86499</ele>
        <time>2018-12-15T13:59:15Z</time>
      </trkpt>
      <trkpt lat="43.80604" lon="5.37477">
        <ele>715.22522</ele>
        <time>2018-12-15T13:59:31Z</time>
      </trkpt>
      <trkpt lat="43.80584" lon="5.37472">
        <ele>716.954651</ele>
        <time>2018-12-15T13:59:46Z</time>
      </trkpt>
      <trkpt lat="43.80564" lon="5.37469">
        <ele>714.151245</ele>
        <time>2018-12-15T14:00:02Z</time>
      </trkpt>
      <trkpt lat="43.80546" lon="5.37463">
        <ele>711.436035</ele>
        <time>2018-12-15T14:00:17Z</time>
      </trkpt>
      <trkpt lat="43.8053" lon="5.37461">
        <ele>708.801392</ele>
        <time>2018-12-15T14:00:33Z</time>
      </trkpt>
      <trkpt lat="43.80513" lon="5.37455">
        <ele>706.034424</ele>
        <time>2018-12-15T14:00:48Z</time>
      </trkpt>
      <trkpt lat="43.80496" lon="5.37454">
        <ele>703.498718</ele>
        <time>2018-12-15T14:01:03Z</time>
      </trkpt>
      <trkpt lat="43.8048" lon="5.37446">
        <ele>701.339661</ele>
        <time>2018-12-15T14:01:19Z</time>
      </trkpt>
      <trkpt lat="43.80463" lon="5.37437">
        <ele>698.843323</ele>
        <time>2018-12-15T14:01:35Z</time>
      </trkpt>
      <trkpt lat="43.80445" lon="5.3743">
        <ele>696.03241</ele>
        <time>2018-12-15T14:01:50Z</time>
      </trkpt>
      <trkpt lat="43.80429" lon="5.37424">
        <ele>693.354309</ele>
        <time>2018-12-15T14:02:05Z</time>
      </trkpt>
      <trkpt lat="43.80407" lon="5.37417">
        <ele>691.115479</ele>
        <time>2018-12-15T14:02:21Z</time>
      </trkpt>
      <trkpt lat="43.80389" lon="5.37406">
        <ele>690.978394</ele>
        <time>2018-12-15T14:02:37Z</time>
      </trkpt>
      <trkpt lat="43.8037" lon="5.37397">
        <ele>690.516418</ele>
        <time>2018-12-15T14:02:52Z</time>
      </trkpt>
      <trkpt lat="43.80351" lon="5.37392">
        <ele>689.885864</ele>
        <time>2018-12-15T14:03:08Z</time>
      </trkpt>
      <trkpt lat="43.80334" lon="5.37383">
        <ele>688.76886</ele>
        <time>2018-12-15T14:03:24Z</time>
      </trkpt>
      <trkpt lat="43.80318" lon="5.37378">
        <ele>687.478027</ele>
        <time>2018-12-15T14:03:40Z</time>
      </trkpt>
      <trkpt lat="43.80301" lon="5.37364">
        <ele>685.462891</ele>
        <time>2018-12-15T14:03:56Z</time>
      </trkpt>
      <trkpt lat="43.80287" lon="5.3734">
        <ele>682.883789</ele>
        <time>2018-12-15T14:04:11Z</time>
      </trkpt>
      <trkpt lat="43.80278" lon="5.37313">
        <ele>681.511475</ele>
        <time>2018-12-15T14:04:27Z</time>
      </trkpt>
      <trkpt lat="43.80274" lon="5.37285">
        <ele>680.781494</ele>
        <time>2018-12-15T14:04:42Z</time>
      </trkpt>
      <trkpt lat="43.80265" lon="5.37258">
        <ele>680.146973</ele>
        <time>2018-12-15T14:04:58Z</time>
      </trkpt>
      <trkpt lat="43.80254" lon="5.37233">
        <ele>679.979797</ele>
        <time>2018-12-15T14:05:14Z</time>
      </trkpt>
      <trkpt lat="43.80237" lon="5.37218">
        <ele>677.269226</ele>
        <time>2018-12-15T14:05:30Z</time>
      </trkpt>
      <trkpt lat="43.80222" lon="5.372">
        <ele>674.828247</ele>
        <time>2018-12-15T14:05:46Z</time>
      </trkpt>
      <trkpt lat="43.80207" lon="5.3718">
        <ele>673.394043</ele>
        <time>2018-12-15T14:06:01Z</time>
      </trkpt>
      <trkpt lat="43.80188" lon="5.37165">
        <ele>671.976807</ele>
        <time>2018-12-15T14:06:16Z</time>
      </trkpt>
      <trkpt lat="43.80169" lon="5.37153">
        <ele>670.956787</ele>
        <time>2018-12-15T14:06:32Z</time>
      </trkpt>
      <trkpt lat="43.8015" lon="5.37144">
        <ele>668.287598</ele>
        <time>2018-12-15T14:06:48Z</time>
      </trkpt>
      <trkpt lat="43.80131" lon="5.37137">
        <ele>665.327026</ele>
        <time>2018-12-15T14:07:04Z</time>
      </trkpt>
      <trkpt lat="43.80111" lon="5.37132">
        <ele>662.295288</ele>
        <time>2018-12-15T14:07:19Z</time>
      </trkpt>
      <trkpt lat="43.8009" lon="5.37127">
        <ele>658.959106</ele>
        <time>2018-12-15T14:07:34Z</time>
      </trkpt>
      <trkpt lat="43.80069" lon="5.37121">
        <ele>655.476501</ele>
        <time>2018-12-15T14:07:50Z</time>
      </trkpt>
      <trkpt lat="43.80051" lon="5.37107">
        <ele>653.481079</ele>
        <time>2018-12-15T14:08:06Z</time>
      </trkpt>
      <trkpt lat="43.80031" lon="5.37097">
        <ele>650.404297</ele>
        <time>2018-12-15T14:08:22Z</time>
      </trkpt>
      <trkpt lat="43.80015" lon="5.37077">
        <ele>648.647949</ele>
        <time>2018-12-15T14:08:37Z</time>
      </trkpt>
      <trkpt lat="43.80006" lon="5.37052">
        <ele>646.646606</ele>
        <time>2018-12-15T14:08:52Z</time>
      </trkpt>
      <trkpt lat="43.79999" lon="5.37029">
        <ele>645.184082</ele>
        <time>2018-12-15T14:09:08Z</time>
      </trkpt>
      <trkpt lat="43.79992" lon="5.37005">
        <ele>643.27478</ele>
        <time>2018-12-15T14:09:23Z</time>
      </trkpt>
      <trkpt lat="43.79984" lon="5.36979">
        <ele>639.086548</ele>
        <time>2018-12-15T14:09:39Z</time>
      </trkpt>
      <trkpt lat="43.79977" lon="5.36954">
        <ele>635.422363</ele>
        <time>2018-12-15T14:09:54Z</time>
      </trkpt>
      <trkpt lat="43.79968" lon="5.36928">
        <ele>632.776306</ele>
        <time>2018-12-15T14:10:10Z</time>
      </trkpt>
      <trkpt lat="43.7996" lon="5.36905">
        <ele>630.380066</ele>
        <time>2018-12-15T14:10:25Z</time>
      </trkpt>
      <trkpt lat="43.79949" lon="5.36883">
        <ele>627.830139</ele>
        <time>2018-12-15T14:10:41Z</time>
      </trkpt>
      <trkpt lat="43.79929" lon="5.36887">
        <ele>627.636047</ele>
        <time>2018-12-15T14:10:56Z</time>
      </trkpt>
      <trkpt lat="43.79911" lon="5.3689">
        <ele>625.809998</ele>
        <time>2018-12-15T14:11:11Z</time>
      </trkpt>
      <trkpt lat="43.79892" lon="5.36886">
        <ele>620.478027</ele>
        <time>2018-12-15T14:11:27Z</time>
      </trkpt>
      <trkpt lat="43.79874" lon="5.3688">
        <ele>615.499878</ele>
        <time>2018-12-15T14:11:43Z</time>
      </trkpt>
      <trkpt lat="43.79856" lon="5.36874">
        <ele>610.990723</ele>
        <time>2018-12-15T14:11:58Z</time>
      </trkpt>
      <trkpt lat="43.79839" lon="5.36866">
        <ele>607.26123</ele>
        <time>2018-12-15T14:12:14Z</time>
      </trkpt>
      <trkpt lat="43.79824" lon="5.36855">
        <ele>604.375305</ele>
        <time>2018-12-15T14:12:30Z</time>
      </trkpt>
      <trkpt lat="43.7981" lon="5.36852">
        <ele>600.830383</ele>
        <time>2018-12-15T14:12:45Z</time>
      </trkpt>
      <trkpt lat="43.79794" lon="5.36845">
        <ele>597.570312</ele>
        <time>2018-12-15T14:13:01Z</time>
      </trkpt>
      <trkpt lat="43.79779" lon="5.36841">
        <ele>594.156433</ele>
        <time>2018-12-15T14:13:16Z</time>
      </trkpt>
      <trkpt lat="43.79767" lon="5.36827">
        <ele>591.656616</ele>
        <time>2018-12-15T14:13:31Z</time>
      </trkpt>
      <trkpt lat="43.79751" lon="5.36822">
        <ele>587.248413</ele>
        <time>2018-12-15T14:13:47Z</time>
      </trkpt>
      <trkpt lat="43.79738" lon="5.36816">
        <ele>584.059998</ele>
        <time>2018-12-15T14:14:02Z</time>
      </trkpt>
      <trkpt lat="43.79718" lon="5.36821">
        <ele>580.53186</ele>
        <time>2018-12-15T14:14:18Z</time>
      </trkpt>
      <trkpt lat="43.797" lon="5.36819">
        <ele>576.990723</ele>
        <time>2018-12-15T14:14:33Z</time>
      </trkpt>
      <trkpt lat="43.79683" lon="5.3683">
        <ele>574.147461</ele>
        <time>2018-12-15T14:14:49Z</time>
      </trkpt>
      <trkpt lat="43.79668" lon="5.36832">
        <ele>571.240173</ele>
        <time>2018-12-15T14:15:04Z</time>
      </trkpt>
      <trkpt lat="43.7965" lon="5.36834">
        <ele>568.53656</ele>
        <time>2018-12-15T14:15:20Z</time>
      </trkpt>
      <trkpt lat="43.79636" lon="5.36846">
        <ele>564.244324</ele>
        <time>2018-12-15T14:15:35Z</time>
      </trkpt>
      <trkpt lat="43.79621" lon="5.3686">
        <ele>559.987854</ele>
        <time>2018-12-15T14:15:51Z</time>
      </trkpt>
      <trkpt lat="43.796" lon="5.36864">
        <ele>557.189575</ele>
        <time>2018-12-15T14:16:06Z</time>
      </trkpt>
      <trkpt lat="43.79578" lon="5.36866">
        <ele>554.81604</ele>
        <time>2018-12-15T14:16:22Z</time>
      </trkpt>
      <trkpt lat="43.79558" lon="5.36862">
        <ele>554.234253</ele>
        <time>2018-12-15T14:16:37Z</time>
      </trkpt>
      <trkpt lat="43.79538" lon="5.36853">
        <ele>554.480469</ele>
        <time>2018-12-15T14:16:53Z</time>
      </trkpt>
      <trkpt lat="43.7952" lon="5.36839">
        <ele>555.820374</ele>
        <time>2018-12-15T14:17:08Z</time>
      </trkpt>
      <trkpt lat="43.795" lon="5.36826">
        <ele>554.76825</ele>
        <time>2018-12-15T14:17:24Z</time>
      </trkpt>
      <trkpt lat="43.79505" lon="5.36808">
        <ele>551.97345</ele>
        <time>2018-12-15T14:18:00Z</time>
      </trkpt>
      <trkpt lat="43.79522" lon="5.36801">
        <ele>551.468445</ele>
        <time>2018-12-15T14:18:15Z</time>
      </trkpt>
      <trkpt lat="43.79539" lon="5.36795">
        <ele>551.144531</ele>
        <time>2018-12-15T14:18:30Z</time>
      </trkpt>
      <trkpt lat="43.79555" lon="5.36781">
        <ele>549.603821</ele>
        <time>2018-12-15T14:18:45Z</time>
      </trkpt>
      <trkpt lat="43.79571" lon="5.36764">
        <ele>547.680603</ele>
        <time>2018-12-15T14:19:01Z</time>
      </trkpt>
      <trkpt lat="43.79582" lon="5.36743">
        <ele>545.043091</ele>
        <time>2018-12-15T14:19:16Z</time>
      </trkpt>
      <trkpt lat="43.79586" lon="5.36718">
        <ele>542.450928</ele>
        <time>2018-12-15T14:19:32Z</time>
      </trkpt>
      <trkpt lat="43.79587" lon="5.36689">
        <ele>538.796448</ele>
        <time>2018-12-15T14:19:48Z</time>
      </trkpt>
      <trkpt lat="43.79588" lon="5.36662">
        <ele>535.411316</ele>
        <time>2018-12-15T14:20:03Z</time>
      </trkpt>
      <trkpt lat="43.79588" lon="5.36634">
        <ele>532.005127</ele>
        <time>2018-12-15T14:20:18Z</time>
      </trkpt>
      <trkpt lat="43.79587" lon="5.36605">
        <ele>528.259399</ele>
        <time>2018-12-15T14:20:34Z</time>
      </trkpt>
      <trkpt lat="43.7959" lon="5.36585">
        <ele>526.117432</ele>
        <time>2018-12-15T14:20:50Z</time>
      </trkpt>
      <trkpt lat="43.79589" lon="5.3656">
        <ele>522.82074</ele>
        <time>2018-12-15T14:21:05Z</time>
      </trkpt>
      <trkpt lat="43.79585" lon="5.36535">
        <ele>519.332886</ele>
        <time>2018-12-15T14:21:21Z</time>
      </trkpt>
      <trkpt lat="43.79584" lon="5.36509">
        <ele>516.101807</ele>
        <time>2018-12-15T14:21:36Z</time>
      </trkpt>
      <trkpt lat="43.79596" lon="5.36486">
        <ele>512.250854</ele>
        <time>2018-12-15T14:21:52Z</time>
      </trkpt>
      <trkpt lat="43.79618" lon="5.36481">
        <ele>512.055298</ele>
        <time>2018-12-15T14:22:08Z</time>
      </trkpt>
      <trkpt lat="43.79639" lon="5.36487">
        <ele>513.491821</ele>
        <time>2018-12-15T14:22:23Z</time>
      </trkpt>
      <trkpt lat="43.79659" lon="5.36491">
        <ele>514.203735</ele>
        <time>2018-12-15T14:22:39Z</time>
      </trkpt>
      <trkpt lat="43.79679" lon="5.36497">
        <ele>517.163513</ele>
        <time>2018-12-15T14:22:55Z</time>
      </trkpt>
      <trkpt lat="43.79698" lon="5.365">
        <ele>520.659546</ele>
        <time>2018-12-15T14:23:11Z</time>
      </trkpt>
      <trkpt lat="43.79693" lon="5.36482">
        <ele>519.504822</ele>
        <time>2018-12-15T14:23:34Z</time>
      </trkpt>
      <trkpt lat="43.79674" lon="5.36466">
        <ele>514.3797</ele>
        <time>2018-12-15T14:23:50Z</time>
      </trkpt>
      <trkpt lat="43.79663" lon="5.36445">
        <ele>510.705566</ele>
        <time>2018-12-15T14:24:05Z</time>
      </trkpt>
      <trkpt lat="43.79644" lon="5.36423">
        <ele>506.44516</ele>
        <time>2018-12-15T14:24:21Z</time>
      </trkpt>
      <trkpt lat="43.79626" lon="5.36411">
        <ele>503.365601</ele>
        <time>2018-12-15T14:24:37Z</time>
      </trkpt>
      <trkpt lat="43.79618" lon="5.36393">
        <ele>502.714539</ele>
        <time>2018-12-15T14:24:53Z</time>
      </trkpt>
      <trkpt lat="43.79602" lon="5.36374">
        <ele>499.263458</ele>
        <time>2018-12-15T14:25:08Z</time>
      </trkpt>
      <trkpt lat="43.79588" lon="5.36368">
        <ele>495.730072</ele>
        <time>2018-12-15T14:25:24Z</time>
      </trkpt>
      <trkpt lat="43.79573" lon="5.36353">
        <ele>491.969482</ele>
        <time>2018-12-15T14:25:39Z</time>
      </trkpt>
      <trkpt lat="43.79546" lon="5.36354">
        <ele>487.191803</ele>
        <time>2018-12-15T14:25:54Z</time>
      </trkpt>
      <trkpt lat="43.79531" lon="5.36352">
        <ele>484.399719</ele>
        <time>2018-12-15T14:26:10Z</time>
      </trkpt>
      <trkpt lat="43.79518" lon="5.36366">
        <ele>482.108002</ele>
        <time>2018-12-15T14:26:26Z</time>
      </trkpt>
      <trkpt lat="43.79501" lon="5.36377">
        <ele>478.578491</ele>
        <time>2018-12-15T14:26:42Z</time>
      </trkpt>
      <trkpt lat="43.79483" lon="5.3638">
        <ele>474.746277</ele>
        <time>2018-12-15T14:26:57Z</time>
      </trkpt>
      <trkpt lat="43.79465" lon="5.36378">
        <ele>471.015869</ele>
        <time>2018-12-15T14:27:13Z</time>
      </trkpt>
      <trkpt lat="43.79449" lon="5.36382">
        <ele>467.419617</ele>
        <time>2018-12-15T14:27:28Z</time>
      </trkpt>
      <trkpt lat="43.79431" lon="5.36386">
        <ele>463.741608</ele>
        <time>2018-12-15T14:27:44Z</time>
      </trkpt>
      <trkpt lat="43.79414" lon="5.36384">
        <ele>460.372803</ele>
        <time>2018-12-15T14:27:59Z</time>
      </trkpt>
      <trkpt lat="43.79394" lon="5.36378">
        <ele>457.90387</ele>
        <time>2018-12-15T14:28:14Z</time>
      </trkpt>
      <trkpt lat="43.79374" lon="5.36372">
        <ele>455.050964</ele>
        <time>2018-12-15T14:28:30Z</time>
      </trkpt>
      <trkpt lat="43.79355" lon="5.36364">
        <ele>451.6297</ele>
        <time>2018-12-15T14:28:45Z</time>
      </trkpt>
      <trkpt lat="43.79339" lon="5.36361">
        <ele>448.848572</ele>
        <time>2018-12-15T14:29:01Z</time>
      </trkpt>
      <trkpt lat="43.79318" lon="5.36351">
        <ele>444.251648</ele>
        <time>2018-12-15T14:29:16Z</time>
      </trkpt>
      <trkpt lat="43.79305" lon="5.36343">
        <ele>441.004639</ele>
        <time>2018-12-15T14:29:32Z</time>
      </trkpt>
      <trkpt lat="43.79281" lon="5.36333">
        <ele>435.654602</ele>
        <time>2018-12-15T14:29:48Z</time>
      </trkpt>
      <trkpt lat="43.79268" lon="5.36328">
        <ele>434.985565</ele>
        <time>2018-12-15T14:30:04Z</time>
      </trkpt>
      <trkpt lat="43.79246" lon="5.36332">
        <ele>430.990417</ele>
        <time>2018-12-15T14:30:19Z</time>
      </trkpt>
      <trkpt lat="43.79226" lon="5.36326">
        <ele>430.438568</ele>
        <time>2018-12-15T14:30:35Z</time>
      </trkpt>
      <trkpt lat="43.79201" lon="5.36323">
        <ele>428.098267</ele>
        <time>2018-12-15T14:30:51Z</time>
      </trkpt>
      <trkpt lat="43.79184" lon="5.36314">
        <ele>426.575012</ele>
        <time>2018-12-15T14:31:06Z</time>
      </trkpt>
      <trkpt lat="43.79176" lon="5.36297">
        <ele>425.308716</ele>
        <time>2018-12-15T14:31:25Z</time>
      </trkpt>
      <trkpt lat="43.79153" lon="5.36286">
        <ele>423.293518</ele>
        <time>2018-12-15T14:31:40Z</time>
      </trkpt>
      <trkpt lat="43.79141" lon="5.3627">
        <ele>421.523865</ele>
        <time>2018-12-15T14:31:55Z</time>
      </trkpt>
      <trkpt lat="43.79126" lon="5.3626">
        <ele>419.148438</ele>
        <time>2018-12-15T14:32:10Z</time>
      </trkpt>
      <trkpt lat="43.79111" lon="5.3624">
        <ele>416.025269</ele>
        <time>2018-12-15T14:32:26Z</time>
      </trkpt>
      <trkpt lat="43.791" lon="5.36216">
        <ele>413.424377</ele>
        <time>2018-12-15T14:32:41Z</time>
      </trkpt>
      <trkpt lat="43.79088" lon="5.36195">
        <ele>409.237549</ele>
        <time>2018-12-15T14:32:57Z</time>
      </trkpt>
      <trkpt lat="43.79078" lon="5.36175">
        <ele>406.107361</ele>
        <time>2018-12-15T14:33:13Z</time>
      </trkpt>
      <trkpt lat="43.79064" lon="5.36159">
        <ele>406.029236</ele>
        <time>2018-12-15T14:33:29Z</time>
      </trkpt>
      <trkpt lat="43.79049" lon="5.36125">
        <ele>405.447144</ele>
        <time>2018-12-15T14:33:45Z</time>
      </trkpt>
      <trkpt lat="43.7903" lon="5.36114">
        <ele>401.793884</ele>
        <time>2018-12-15T14:34:01Z</time>
      </trkpt>
      <trkpt lat="43.79017" lon="5.36098">
        <ele>397.149658</ele>
        <time>2018-12-15T14:34:16Z</time>
      </trkpt>
      <trkpt lat="43.79001" lon="5.36077">
        <ele>391.809357</ele>
        <time>2018-12-15T14:34:31Z</time>
      </trkpt>
      <trkpt lat="43.78979" lon="5.36067">
        <ele>391.150085</ele>
        <time>2018-12-15T14:34:47Z</time>
      </trkpt>
      <trkpt lat="43.78959" lon="5.3607">
        <ele>387.789001</ele>
        <time>2018-12-15T14:35:03Z</time>
      </trkpt>
      <trkpt lat="43.78939" lon="5.3607">
        <ele>384.823395</ele>
        <time>2018-12-15T14:35:19Z</time>
      </trkpt>
      <trkpt lat="43.78923" lon="5.36078">
        <ele>380.957764</ele>
        <time>2018-12-15T14:35:34Z</time>
      </trkpt>
      <trkpt lat="43.78904" lon="5.36091">
        <ele>378.589417</ele>
        <time>2018-12-15T14:35:50Z</time>
      </trkpt>
      <trkpt lat="43.78879" lon="5.36092">
        <ele>374.545074</ele>
        <time>2018-12-15T14:36:06Z</time>
      </trkpt>
      <trkpt lat="43.78856" lon="5.36095">
        <ele>371.471863</ele>
        <time>2018-12-15T14:36:21Z</time>
      </trkpt>
      <trkpt lat="43.78837" lon="5.36092">
        <ele>367.301331</ele>
        <time>2018-12-15T14:36:37Z</time>
      </trkpt>
      <trkpt lat="43.78823" lon="5.36091">
        <ele>367.746918</ele>
        <time>2018-12-15T14:36:53Z</time>
      </trkpt>
      <trkpt lat="43.78806" lon="5.36081">
        <ele>367.508911</ele>
        <time>2018-12-15T14:37:08Z</time>
      </trkpt>
      <trkpt lat="43.78797" lon="5.36059">
        <ele>367.018219</ele>
        <time>2018-12-15T14:37:24Z</time>
      </trkpt>
      <trkpt lat="43.78787" lon="5.36034">
        <ele>364.907532</ele>
        <time>2018-12-15T14:37:40Z</time>
      </trkpt>
      <trkpt lat="43.7878" lon="5.36005">
        <ele>360.74231</ele>
        <time>2018-12-15T14:37:56Z</time>
      </trkpt>
      <trkpt lat="43.78778" lon="5.35985">
        <ele>359.400726</ele>
        <time>2018-12-15T14:38:15Z</time>
      </trkpt>
      <trkpt lat="43.78776" lon="5.35958">
        <ele>358.434265</ele>
        <time>2018-12-15T14:38:31Z</time>
      </trkpt>
      <trkpt lat="43.78767" lon="5.35924">
        <ele>355.026764</ele>
        <time>2018-12-15T14:38:46Z</time>
      </trkpt>
      <trkpt lat="43.78771" lon="5.35902">
        <ele>355.227295</ele>
        <time>2018-12-15T14:39:02Z</time>
      </trkpt>
      <trkpt lat="43.78765" lon="5.35867">
        <ele>351.192871</ele>
        <time>2018-12-15T14:39:18Z</time>
      </trkpt>
      <trkpt lat="43.78757" lon="5.35842">
        <ele>346.376404</ele>
        <time>2018-12-15T14:39:34Z</time>
      </trkpt>
      <trkpt lat="43.78751" lon="5.3582">
        <ele>342.812317</ele>
        <time>2018-12-15T14:39:50Z</time>
      </trkpt>
      <trkpt lat="43.78742" lon="5.35801">
        <ele>342.592438</ele>
        <time>2018-12-15T14:40:05Z</time>
      </trkpt>
      <trkpt lat="43.78734" lon="5.35779">
        <ele>341.398773</ele>
        <time>2018-12-15T14:40:20Z</time>
      </trkpt>
      <trkpt lat="43.7872" lon="5.35758">
        <ele>338.561401</ele>
        <time>2018-12-15T14:40:36Z</time>
      </trkpt>
      <trkpt lat="43.78706" lon="5.35735">
        <ele>335.33429</ele>
        <time>2018-12-15T14:40:51Z</time>
      </trkpt>
      <trkpt lat="43.7869" lon="5.35711">
        <ele>331.612</ele>
        <time>2018-12-15T14:41:07Z</time>
      </trkpt>
      <trkpt lat="43.7868" lon="5.35685">
        <ele>327.593353</ele>
        <time>2018-12-15T14:41:23Z</time>
      </trkpt>
      <trkpt lat="43.78667" lon="5.35656">
        <ele>322.661346</ele>
        <time>2018-12-15T14:41:38Z</time>
      </trkpt>
      <trkpt lat="43.78656" lon="5.35635">
        <ele>324.352234</ele>
        <time>2018-12-15T14:41:54Z</time>
      </trkpt>
      <trkpt lat="43.78651" lon="5.35607">
        <ele>323.422272</ele>
        <time>2018-12-15T14:42:10Z</time>
      </trkpt>
      <trkpt lat="43.78647" lon="5.35574">
        <ele>322.463257</ele>
        <time>2018-12-15T14:42:25Z</time>
      </trkpt>
      <trkpt lat="43.78632" lon="5.35561">
        <ele>323.38385</ele>
        <time>2018-12-15T14:42:41Z</time>
      </trkpt>
      <trkpt lat="43.78621" lon="5.3553">
        <ele>321.981781</ele>
        <time>2018-12-15T14:42:56Z</time>
      </trkpt>
      <trkpt lat="43.78614" lon="5.35508">
        <ele>319.945648</ele>
        <time>2018-12-15T14:43:11Z</time>
      </trkpt>
      <trkpt lat="43.78612" lon="5.35488">
        <ele>318.430725</ele>
        <time>2018-12-15T14:43:27Z</time>
      </trkpt>
      <trkpt lat="43.78598" lon="5.35454">
        <ele>312.791779</ele>
        <time>2018-12-15T14:43:43Z</time>
      </trkpt>
      <trkpt lat="43.78597" lon="5.35419">
        <ele>308.761139</ele>
        <time>2018-12-15T14:43:59Z</time>
      </trkpt>
      <trkpt lat="43.78588" lon="5.35391">
        <ele>307.640137</ele>
        <time>2018-12-15T14:44:15Z</time>
      </trkpt>
      <trkpt lat="43.78577" lon="5.35379">
        <ele>306.801025</ele>
        <time>2018-12-15T14:44:31Z</time>
      </trkpt>
      <trkpt lat="43.7856" lon="5.35362">
        <ele>306.77655</ele>
        <time>2018-12-15T14:44:47Z</time>
      </trkpt>
      <trkpt lat="43.78544" lon="5.3534">
        <ele>305.002686</ele>
        <time>2018-12-15T14:45:02Z</time>
      </trkpt>
      <trkpt lat="43.78521" lon="5.3534">
        <ele>301.266296</ele>
        <time>2018-12-15T14:45:17Z</time>
      </trkpt>
      <trkpt lat="43.78505" lon="5.35336">
        <ele>298.130035</ele>
        <time>2018-12-15T14:45:32Z</time>
      </trkpt>
      <trkpt lat="43.78486" lon="5.35331">
        <ele>296.232758</ele>
        <time>2018-12-15T14:45:48Z</time>
      </trkpt>
      <trkpt lat="43.7847" lon="5.35325">
        <ele>296.538025</ele>
        <time>2018-12-15T14:46:03Z</time>
      </trkpt>
      <trkpt lat="43.78443" lon="5.35327">
        <ele>293.333984</ele>
        <time>2018-12-15T14:46:19Z</time>
      </trkpt>
      <trkpt lat="43.7842" lon="5.35327">
        <ele>291.027771</ele>
        <time>2018-12-15T14:46:35Z</time>
      </trkpt>
      <trkpt lat="43.78406" lon="5.35325">
        <ele>291.483154</ele>
        <time>2018-12-15T14:46:51Z</time>
      </trkpt>
      <trkpt lat="43.78376" lon="5.35332">
        <ele>289.349945</ele>
        <time>2018-12-15T14:47:07Z</time>
      </trkpt>
      <trkpt lat="43.78355" lon="5.35353">
        <ele>289.258209</ele>
        <time>2018-12-15T14:47:22Z</time>
      </trkpt>
      <trkpt lat="43.78337" lon="5.35368">
        <ele>287.732971</ele>
        <time>2018-12-15T14:47:38Z</time>
      </trkpt>
      <trkpt lat="43.78321" lon="5.3538">
        <ele>287.429443</ele>
        <time>2018-12-15T14:47:53Z</time>
      </trkpt>
      <trkpt lat="43.78303" lon="5.35394">
        <ele>286.525055</ele>
        <time>2018-12-15T14:48:09Z</time>
      </trkpt>
      <trkpt lat="43.78284" lon="5.35399">
        <ele>285.74469</ele>
        <time>2018-12-15T14:48:24Z</time>
      </trkpt>
      <trkpt lat="43.78264" lon="5.35405">
        <ele>283.989807</ele>
        <time>2018-12-15T14:48:40Z</time>
      </trkpt>
      <trkpt lat="43.78247" lon="5.35416">
        <ele>280.16745</ele>
        <time>2018-12-15T14:48:56Z</time>
      </trkpt>
      <trkpt lat="43.78228" lon="5.35437">
        <ele>280.177734</ele>
        <time>2018-12-15T14:49:11Z</time>
      </trkpt>
      <trkpt lat="43.7822" lon="5.35458">
        <ele>279.463623</ele>
        <time>2018-12-15T14:49:26Z</time>
      </trkpt>
      <trkpt lat="43.78201" lon="5.35474">
        <ele>275.687286</ele>
        <time>2018-12-15T14:49:42Z</time>
      </trkpt>
      <trkpt lat="43.78194" lon="5.3549">
        <ele>272.77002</ele>
        <time>2018-12-15T14:49:59Z</time>
      </trkpt>
      <trkpt lat="43.78183" lon="5.3551">
        <ele>271.164062</ele>
        <time>2018-12-15T14:50:15Z</time>
      </trkpt>
      <trkpt lat="43.78175" lon="5.35525">
        <ele>272.227142</ele>
        <time>2018-12-15T14:50:30Z</time>
      </trkpt>
      <trkpt lat="43.78161" lon="5.35537">
        <ele>271.717987</ele>
        <time>2018-12-15T14:50:46Z</time>
      </trkpt>
      <trkpt lat="43.7815" lon="5.3555">
        <ele>273.618561</ele>
        <time>2018-12-15T14:51:01Z</time>
      </trkpt>
      <trkpt lat="43.78139" lon="5.35566">
        <ele>276.040985</ele>
        <time>2018-12-15T14:51:17Z</time>
      </trkpt>
      <trkpt lat="43.78132" lon="5.35592">
        <ele>279.432861</ele>
        <time>2018-12-15T14:51:33Z</time>
      </trkpt>
      <trkpt lat="43.7813" lon="5.35616">
        <ele>281.551392</ele>
        <time>2018-12-15T14:51:49Z</time>
      </trkpt>
      <trkpt lat="43.78133" lon="5.35638">
        <ele>283.974426</ele>
        <time>2018-12-15T14:52:04Z</time>
      </trkpt>
      <trkpt lat="43.78137" lon="5.35662">
        <ele>286.923218</ele>
        <time>2018-12-15T14:52:20Z</time>
      </trkpt>
      <trkpt lat="43.78129" lon="5.35681">
        <ele>286.997253</ele>
        <time>2018-12-15T14:52:35Z</time>
      </trkpt>
      <trkpt lat="43.78117" lon="5.35691">
        <ele>285.990021</ele>
        <time>2018-12-15T14:52:50Z</time>
      </trkpt>
      <trkpt lat="43.78099" lon="5.3569">
        <ele>283.474335</ele>
        <time>2018-12-15T14:53:06Z</time>
      </trkpt>
      <trkpt lat="43.78082" lon="5.3569">
        <ele>281.389557</ele>
        <time>2018-12-15T14:53:21Z</time>
      </trkpt>
      <trkpt lat="43.78062" lon="5.3569">
        <ele>283.313599</ele>
        <time>2018-12-15T14:53:37Z</time>
      </trkpt>
      <trkpt lat="43.78044" lon="5.35692">
        <ele>285.087341</ele>
        <time>2018-12-15T14:53:52Z</time>
      </trkpt>
      <trkpt lat="43.78026" lon="5.35698">
        <ele>286.611237</ele>
        <time>2018-12-15T14:54:07Z</time>
      </trkpt>
      <trkpt lat="43.78007" lon="5.35707">
        <ele>287.670868</ele>
        <time>2018-12-15T14:54:23Z</time>
      </trkpt>
      <trkpt lat="43.77987" lon="5.35722">
        <ele>286.751373</ele>
        <time>2018-12-15T14:54:39Z</time>
      </trkpt>
      <trkpt lat="43.77977" lon="5.35738">
        <ele>285.375977</ele>
        <time>2018-12-15T14:54:54Z</time>
      </trkpt>
      <trkpt lat="43.77966" lon="5.35762">
        <ele>283.838593</ele>
        <time>2018-12-15T14:55:10Z</time>
      </trkpt>
      <trkpt lat="43.77946" lon="5.35774">
        <ele>282.950073</ele>
        <time>2018-12-15T14:55:25Z</time>
      </trkpt>
      <trkpt lat="43.77924" lon="5.35775">
        <ele>282.309113</ele>
        <time>2018-12-15T14:55:41Z</time>
      </trkpt>
      <trkpt lat="43.77909" lon="5.35771">
        <ele>281.659027</ele>
        <time>2018-12-15T14:55:56Z</time>
      </trkpt>
      <trkpt lat="43.77886" lon="5.35781">
        <ele>279.678741</ele>
        <time>2018-12-15T14:56:12Z</time>
      </trkpt>
      <trkpt lat="43.77864" lon="5.35791">
        <ele>277.763092</ele>
        <time>2018-12-15T14:56:28Z</time>
      </trkpt>
      <trkpt lat="43.77842" lon="5.35808">
        <ele>275.569855</ele>
        <time>2018-12-15T14:56:44Z</time>
      </trkpt>
      <trkpt lat="43.77822" lon="5.35816">
        <ele>273.696259</ele>
        <time>2018-12-15T14:57:00Z</time>
      </trkpt>
      <trkpt lat="43.77802" lon="5.35827">
        <ele>271.414276</ele>
        <time>2018-12-15T14:57:16Z</time>
      </trkpt>
      <trkpt lat="43.7778" lon="5.3583">
        <ele>269.099609</ele>
        <time>2018-12-15T14:57:32Z</time>
      </trkpt>
      <trkpt lat="43.77759" lon="5.35815">
        <ele>268.568909</ele>
        <time>2018-12-15T14:57:48Z</time>
      </trkpt>
      <trkpt lat="43.77739" lon="5.35809">
        <ele>267.966278</ele>
        <time>2018-12-15T14:58:04Z</time>
      </trkpt>
      <trkpt lat="43.7772" lon="5.35825">
        <ele>265.705261</ele>
        <time>2018-12-15T14:58:20Z</time>
      </trkpt>
      <trkpt lat="43.77701" lon="5.35837">
        <ele>264.087097</ele>
        <time>2018-12-15T14:58:36Z</time>
      </trkpt>
      <trkpt lat="43.77684" lon="5.3585">
        <ele>262.726715</ele>
        <time>2018-12-15T14:58:52Z</time>
      </trkpt>
      <trkpt lat="43.77663" lon="5.35864">
        <ele>260.441986</ele>
        <time>2018-12-15T14:59:08Z</time>
      </trkpt>
      <trkpt lat="43.77639" lon="5.35882">
        <ele>256.829681</ele>
        <time>2018-12-15T14:59:24Z</time>
      </trkpt>
      <trkpt lat="43.7762" lon="5.35895">
        <ele>253.783508</ele>
        <time>2018-12-15T14:59:40Z</time>
      </trkpt>
      <trkpt lat="43.77602" lon="5.3591">
        <ele>250.551743</ele>
        <time>2018-12-15T14:59:56Z</time>
      </trkpt>
      <trkpt lat="43.77584" lon="5.35922">
        <ele>247.746353</ele>
        <time>2018-12-15T15:00:12Z</time>
      </trkpt>
      <trkpt lat="43.77564" lon="5.35932">
        <ele>245.358093</ele>
        <time>2018-12-15T15:00:27Z</time>
      </trkpt>
      <trkpt lat="43.77545" lon="5.35936">
        <ele>243.482758</ele>
        <time>2018-12-15T15:00:43Z</time>
      </trkpt>
      <trkpt lat="43.77525" lon="5.35942">
        <ele>241.512024</ele>
        <time>2018-12-15T15:00:59Z</time>
      </trkpt>
      <trkpt lat="43.77505" lon="5.35952">
        <ele>239.564453</ele>
        <time>2018-12-15T15:01:14Z</time>
      </trkpt>
      <trkpt lat="43.77486" lon="5.35966">
        <ele>237.850647</ele>
        <time>2018-12-15T15:01:30Z</time>
      </trkpt>
      <trkpt lat="43.77467" lon="5.35978">
        <ele>236.223404</ele>
        <time>2018-12-15T15:01:45Z</time>
      </trkpt>
      <trkpt lat="43.77464" lon="5.36004">
        <ele>235.703064</ele>
        <time>2018-12-15T15:02:01Z</time>
      </trkpt>
      <trkpt lat="43.7746" lon="5.36029">
        <ele>237.036072</ele>
        <time>2018-12-15T15:02:16Z</time>
      </trkpt>
      <trkpt lat="43.77449" lon="5.3605">
        <ele>237.606567</ele>
        <time>2018-12-15T15:02:32Z</time>
      </trkpt>
      <trkpt lat="43.77451" lon="5.3607">
        <ele>239.025299</ele>
        <time>2018-12-15T15:02:48Z</time>
      </trkpt>
      <trkpt lat="43.7745" lon="5.36092">
        <ele>240.52713</ele>
        <time>2018-12-15T15:03:04Z</time>
      </trkpt>
      <trkpt lat="43.77455" lon="5.36112">
        <ele>242.623199</ele>
        <time>2018-12-15T15:03:20Z</time>
      </trkpt>
      <trkpt lat="43.77461" lon="5.36129">
        <ele>244.616302</ele>
        <time>2018-12-15T15:03:36Z</time>
      </trkpt>
      <trkpt lat="43.7746" lon="5.36151">
        <ele>246.333832</ele>
        <time>2018-12-15T15:03:52Z</time>
      </trkpt>
      <trkpt lat="43.77462" lon="5.3617">
        <ele>247.964935</ele>
        <time>2018-12-15T15:04:08Z</time>
      </trkpt>
      <trkpt lat="43.7747" lon="5.36185">
        <ele>249.460541</ele>
        <time>2018-12-15T15:04:24Z</time>
      </trkpt>
      <trkpt lat="43.77479" lon="5.36202">
        <ele>251.153152</ele>
        <time>2018-12-15T15:04:40Z</time>
      </trkpt>
      <trkpt lat="43.77486" lon="5.36219">
        <ele>252.763489</ele>
        <time>2018-12-15T15:04:55Z</time>
      </trkpt>
      <trkpt lat="43.77494" lon="5.3624">
        <ele>254.730667</ele>
        <time>2018-12-15T15:05:11Z</time>
      </trkpt>
      <trkpt lat="43.775" lon="5.36259">
        <ele>255.994629</ele>
        <time>2018-12-15T15:05:27Z</time>
      </trkpt>
      <trkpt lat="43.77508" lon="5.36277">
        <ele>256.597595</ele>
        <time>2018-12-15T15:05:43Z</time>
      </trkpt>
      <trkpt lat="43.77522" lon="5.36291">
        <ele>257.850525</ele>
        <time>2018-12-15T15:05:59Z</time>
      </trkpt>
      <trkpt lat="43.77533" lon="5.36304">
        <ele>258.912201</ele>
        <time>2018-12-15T15:06:15Z</time>
      </trkpt>
      <trkpt lat="43.77546" lon="5.36314">
        <ele>260.177979</ele>
        <time>2018-12-15T15:06:30Z</time>
      </trkpt>
      <trkpt lat="43.77557" lon="5.36325">
        <ele>261.347107</ele>
        <time>2018-12-15T15:06:45Z</time>
      </trkpt>
      <trkpt lat="43.77556" lon="5.36345">
        <ele>261.337402</ele>
        <time>2018-12-15T15:07:06Z</time>
      </trkpt>
      <trkpt lat="43.77539" lon="5.36367">
        <ele>259.702637</ele>
        <time>2018-12-15T15:07:21Z</time>
      </trkpt>
      <trkpt lat="43.77521" lon="5.36392">
        <ele>258.041992</ele>
        <time>2018-12-15T15:07:37Z</time>
      </trkpt>
      <trkpt lat="43.7751" lon="5.36411">
        <ele>256.959961</ele>
        <time>2018-12-15T15:07:52Z</time>
      </trkpt>
      <trkpt lat="43.77496" lon="5.36431">
        <ele>255.727417</ele>
        <time>2018-12-15T15:08:08Z</time>
      </trkpt>
      <trkpt lat="43.77483" lon="5.36451">
        <ele>254.610413</ele>
        <time>2018-12-15T15:08:23Z</time>
      </trkpt>
      <trkpt lat="43.77471" lon="5.36471">
        <ele>253.467255</ele>
        <time>2018-12-15T15:08:38Z</time>
      </trkpt>
      <trkpt lat="43.77459" lon="5.36489">
        <ele>252.213684</ele>
        <time>2018-12-15T15:08:53Z</time>
      </trkpt>
      <trkpt lat="43.7744" lon="5.36501">
        <ele>250.226349</ele>
        <time>2018-12-15T15:09:09Z</time>
      </trkpt>
      <trkpt lat="43.77419" lon="5.36505">
        <ele>248.142624</ele>
        <time>2018-12-15T15:09:24Z</time>
      </trkpt>
      <trkpt lat="43.7741" lon="5.36527">
        <ele>247.155121</ele>
        <time>2018-12-15T15:09:39Z</time>
      </trkpt>
      <trkpt lat="43.77406" lon="5.36557">
        <ele>246.559784</ele>
        <time>2018-12-15T15:09:54Z</time>
      </trkpt>
      <trkpt lat="43.77398" lon="5.36589">
        <ele>245.898621</ele>
        <time>2018-12-15T15:10:10Z</time>
      </trkpt>
      <trkpt lat="43.77389" lon="5.36616">
        <ele>245.321838</ele>
        <time>2018-12-15T15:10:25Z</time>
      </trkpt>
      <trkpt lat="43.77373" lon="5.3663">
        <ele>244.385864</ele>
        <time>2018-12-15T15:10:41Z</time>
      </trkpt>
      <trkpt lat="43.77354" lon="5.36631">
        <ele>243.2323</ele>
        <time>2018-12-15T15:10:57Z</time>
      </trkpt>
      <trkpt lat="43.77335" lon="5.36634">
        <ele>242.074768</ele>
        <time>2018-12-15T15:11:13Z</time>
      </trkpt>
      <trkpt lat="43.77319" lon="5.36634">
        <ele>241.234039</ele>
        <time>2018-12-15T15:11:29Z</time>
      </trkpt>
      <trkpt lat="43.77297" lon="5.36643">
        <ele>240.135391</ele>
        <time>2018-12-15T15:11:44Z</time>
      </trkpt>
      <trkpt lat="43.77278" lon="5.36658">
        <ele>239.264465</ele>
        <time>2018-12-15T15:12:00Z</time>
      </trkpt>
      <trkpt lat="43.77263" lon="5.36671">
        <ele>238.763107</ele>
        <time>2018-12-15T15:12:15Z</time>
      </trkpt>
      <trkpt lat="43.77246" lon="5.36677">
        <ele>238.120911</ele>
        <time>2018-12-15T15:12:31Z</time>
      </trkpt>
      <trkpt lat="43.77223" lon="5.36676">
        <ele>237.295105</ele>
        <time>2018-12-15T15:12:47Z</time>
      </trkpt>
      <trkpt lat="43.77196" lon="5.36683">
        <ele>236.573761</ele>
        <time>2018-12-15T15:13:02Z</time>
      </trkpt>
      <trkpt lat="43.77174" lon="5.36682">
        <ele>235.798813</ele>
        <time>2018-12-15T15:13:18Z</time>
      </trkpt>
      <trkpt lat="43.77152" lon="5.36683">
        <ele>235.522736</ele>
        <time>2018-12-15T15:13:34Z</time>
      </trkpt>
      <trkpt lat="43.77129" lon="5.36681">
        <ele>235.356171</ele>
        <time>2018-12-15T15:13:50Z</time>
      </trkpt>
      <trkpt lat="43.77111" lon="5.36675">
        <ele>235.174408</ele>
        <time>2018-12-15T15:14:05Z</time>
      </trkpt>
      <trkpt lat="43.77091" lon="5.36672">
        <ele>235.070236</ele>
        <time>2018-12-15T15:14:21Z</time>
      </trkpt>
      <trkpt lat="43.7707" lon="5.36673">
        <ele>234.917114</ele>
        <time>2018-12-15T15:14:36Z</time>
      </trkpt>
      <trkpt lat="43.7705" lon="5.3667">
        <ele>234.655853</ele>
        <time>2018-12-15T15:14:52Z</time>
      </trkpt>
      <trkpt lat="43.77032" lon="5.36662">
        <ele>234.223221</ele>
        <time>2018-12-15T15:15:08Z</time>
      </trkpt>
      <trkpt lat="43.77012" lon="5.36655">
        <ele>233.736694</ele>
        <time>2018-12-15T15:15:23Z</time>
      </trkpt>
      <trkpt lat="43.76994" lon="5.36648">
        <ele>233.305679</ele>
        <time>2018-12-15T15:15:39Z</time>
      </trkpt>
      <trkpt lat="43.7697" lon="5.36642">
        <ele>232.912048</ele>
        <time>2018-12-15T15:15:54Z</time>
      </trkpt>
      <trkpt lat="43.76949" lon="5.36633">
        <ele>232.309357</ele>
        <time>2018-12-15T15:16:10Z</time>
      </trkpt>
      <trkpt lat="43.76925" lon="5.36633">
        <ele>232.061478</ele>
        <time>2018-12-15T15:16:25Z</time>
      </trkpt>
      <trkpt lat="43.76905" lon="5.36623">
        <ele>231.104965</ele>
        <time>2018-12-15T15:16:41Z</time>
      </trkpt>
      <trkpt lat="43.76885" lon="5.3661">
        <ele>230.0961</ele>
        <time>2018-12-15T15:16:57Z</time>
      </trkpt>
      <trkpt lat="43.76862" lon="5.36601">
        <ele>229.503723</ele>
        <time>2018-12-15T15:17:13Z</time>
      </trkpt>
      <trkpt lat="43.76843" lon="5.36592">
        <ele>229.143341</ele>
        <time>2018-12-15T15:17:29Z</time>
      </trkpt>
      <trkpt lat="43.7682" lon="5.36586">
        <ele>229.031952</ele>
        <time>2018-12-15T15:17:45Z</time>
      </trkpt>
      <trkpt lat="43.76805" lon="5.36574">
        <ele>228.604538</ele>
        <time>2018-12-15T15:18:01Z</time>
      </trkpt>
      <trkpt lat="43.76787" lon="5.3656">
        <ele>228.050629</ele>
        <time>2018-12-15T15:18:17Z</time>
      </trkpt>
      <trkpt lat="43.76767" lon="5.36552">
        <ele>227.800415</ele>
        <time>2018-12-15T15:18:32Z</time>
      </trkpt>
      <trkpt lat="43.76745" lon="5.36545">
        <ele>227.648895</ele>
        <time>2018-12-15T15:18:48Z</time>
      </trkpt>
      <trkpt lat="43.76728" lon="5.36527">
        <ele>227.048462</ele>
        <time>2018-12-15T15:19:03Z</time>
      </trkpt>
      <trkpt lat="43.7671" lon="5.36515">
        <ele>226.610626</ele>
        <time>2018-12-15T15:19:18Z</time>
      </trkpt>
      <trkpt lat="43.76694" lon="5.36503">
        <ele>226.123383</ele>
        <time>2018-12-15T15:19:33Z</time>
      </trkpt>
      <trkpt lat="43.76678" lon="5.36485">
        <ele>225.427628</ele>
        <time>2018-12-15T15:19:49Z</time>
      </trkpt>
      <trkpt lat="43.76665" lon="5.36468">
        <ele>224.856598</ele>
        <time>2018-12-15T15:20:04Z</time>
      </trkpt>
      <trkpt lat="43.76652" lon="5.36446">
        <ele>224.065765</ele>
        <time>2018-12-15T15:20:20Z</time>
      </trkpt>
      <trkpt lat="43.76642" lon="5.36424">
        <ele>223.250397</ele>
        <time>2018-12-15T15:20:35Z</time>
      </trkpt>
      <trkpt lat="43.7663" lon="5.36399">
        <ele>222.675537</ele>
        <time>2018-12-15T15:20:51Z</time>
      </trkpt>
      <trkpt lat="43.76616" lon="5.36387">
        <ele>222.504822</ele>
        <time>2018-12-15T15:21:07Z</time>
      </trkpt>
    </trkseg>
  </trk>
</gpx>